Time,TemperatureF,DewpointF,PressureIn,WindDirection,WindDirectionDegrees,WindSpeedMPH,WindSpeedGustMPH,Humidity,HourlyPrecipIn,Conditions,Clouds,dailyrainin,SoftwareType,DateUTC
2013-01-27 00:00:00,24.0,22.0,30.43,SSW,198,0.0,0.0,92,0.00,,,0.00,WeatherDisplay:10.37,2013-01-27 05:00:00,
2013-01-27 00:02:00,23.9,21.9,30.43,SSW,198,0.0,0.0,92,0.00,,,0.00,WeatherDisplay:10.37,2013-01-27 05:02:00,
2013-01-27 00:03:00,23.9,21.9,30.43,SSW,198,0.0,0.0,92,0.00,CLR,,0.00,WeatherDisplay:10.37,2013-01-27 05:03:00,
2013-01-27 00:06:00,23.8,21.8,30.44,SSW,198,0.0,0.0,92,0.00,CLR,,0.00,WeatherDisplay:10.37,2013-01-27 05:06:00,
2013-01-27 00:07:00,23.8,21.8,30.44,SSW,198,0.0,0.0,92,0.00,CLR,,0.00,WeatherDisplay:10.37,2013-01-27 05:07:00,
2013-01-27 00:08:00,23.7,21.7,30.44,SSW,198,0.0,0.0,92,0.00,CLR,,0.00,WeatherDisplay:10.37,2013-01-27 05:08:00,
2013-01-27 00:11:00,23.7,22.0,30.44,SSW,198,0.0,0.0,93,0.00,CLR,,0.00,WeatherDisplay:10.37,2013-01-27 05:11:00,
2013-01-27 00:12:00,23.6,21.9,30.44,SSW,198,0.0,0.0,93,0.00,CLR,,0.00,WeatherDisplay:10.37,2013-01-27 05:12:00,
2013-01-27 00:13:00,23.6,21.9,30.44,SSW,198,0.0,0.0,93,0.00,CLR,,0.00,WeatherDisplay:10.37,2013-01-27 05:13:00,
2013-01-27 00:16:00,23.4,21.7,30.44,SSW,198,0.0,0.0,93,0.00,CLR,,0.00,WeatherDisplay:10.37,2013-01-27 05:16:00,
2013-01-27 00:17:00,23.4,21.7,30.44,SSW,198,0.0,0.0,93,0.00,CLR,,0.00,WeatherDisplay:10.37,2013-01-27 05:17:00,
2013-01-27 00:18:00,23.3,21.6,30.44,SSW,198,0.0,0.0,93,0.00,CLR,,0.00,WeatherDisplay:10.37,2013-01-27 05:18:00,
2013-01-27 00:21:00,23.3,21.6,30.44,SSW,198,0.0,0.0,93,0.00,CLR,,0.00,WeatherDisplay:10.37,2013-01-27 05:21:00,
2013-01-27 00:22:00,23.2,21.5,30.44,SSW,198,0.0,0.0,93,0.00,CLR,,0.00,WeatherDisplay:10.37,2013-01-27 05:22:00,
2013-01-27 00:23:00,23.2,21.5,30.44,SSW,198,0.0,0.0,93,0.00,CLR,,0.00,WeatherDisplay:10.37,2013-01-27 05:23:00,
2013-01-27 00:24:00,23.2,21.5,30.44,SSW,198,0.0,0.0,93,0.00,CLR,,0.00,WeatherDisplay:10.37,2013-01-27 05:24:00,
2013-01-27 00:27:00,23.1,21.4,30.44,SSW,198,0.0,0.0,93,0.00,CLR,,0.00,WeatherDisplay:10.37,2013-01-27 05:27:00,
2013-01-27 00:28:00,23.0,21.3,30.44,SSW,198,0.0,0.0,93,0.00,CLR,,0.00,WeatherDisplay:10.37,2013-01-27 05:28:00,
2013-01-27 00:29:00,23.0,21.3,30.44,SSW,198,0.0,0.0,93,0.00,CLR,,0.00,WeatherDisplay:10.37,2013-01-27 05:29:00,
2013-01-27 00:32:00,22.8,21.1,30.44,SSW,198,0.0,0.0,93,0.00,CLR,,0.00,WeatherDisplay:10.37,2013-01-27 05:32:00,
2013-01-27 00:33:00,22.8,21.1,30.44,SSW,198,0.0,0.0,93,0.00,CLR,,0.00,WeatherDisplay:10.37,2013-01-27 05:33:00,
2013-01-27 00:34:00,22.8,21.1,30.44,SSW,198,0.0,0.0,93,0.00,CLR,,0.00,WeatherDisplay:10.37,2013-01-27 05:34:00,
2013-01-27 00:37:00,22.7,21.0,30.44,SSW,198,0.0,0.0,93,0.00,CLR,,0.00,WeatherDisplay:10.37,2013-01-27 05:37:00,
2013-01-27 00:38:00,22.7,21.0,30.44,SSW,198,0.0,0.0,93,0.00,CLR,,0.00,WeatherDisplay:10.37,2013-01-27 05:38:00,
2013-01-27 00:39:00,22.7,21.0,30.44,SSW,198,0.0,0.0,93,0.00,CLR,,0.00,WeatherDisplay:10.37,2013-01-27 05:39:00,
2013-01-27 00:42:00,22.5,20.8,30.45,SSW,198,0.0,0.0,93,0.00,CLR,,0.00,WeatherDisplay:10.37,2013-01-27 05:42:00,
2013-01-27 00:43:00,22.5,20.8,30.45,SSW,198,0.0,0.0,93,0.00,CLR,,0.00,WeatherDisplay:10.37,2013-01-27 05:43:00,
2013-01-27 00:44:00,22.4,20.7,30.45,SSW,198,0.0,0.0,93,0.00,CLR,,0.00,WeatherDisplay:10.37,2013-01-27 05:44:00,
2013-01-27 00:48:00,22.3,20.6,30.44,SSW,198,0.0,0.0,93,0.00,CLR,,0.00,WeatherDisplay:10.37,2013-01-27 05:48:00,
2013-01-27 00:49:00,22.2,20.5,30.45,SSW,198,0.0,0.0,93,0.00,CLR,,0.00,WeatherDisplay:10.37,2013-01-27 05:49:00,
2013-01-27 00:53:00,22.1,20.4,30.45,SSW,198,0.0,0.0,93,0.00,CLR,,0.00,WeatherDisplay:10.37,2013-01-27 05:53:00,
2013-01-27 00:54:00,22.0,20.3,30.45,SSW,198,0.0,0.0,93,0.00,CLR,,0.00,WeatherDisplay:10.37,2013-01-27 05:54:00,
2013-01-27 00:55:00,22.0,20.3,30.45,SSW,198,0.0,0.0,93,0.00,CLR,,0.00,WeatherDisplay:10.37,2013-01-27 05:55:00,
2013-01-27 00:58:00,21.9,20.2,30.45,SSW,198,0.0,0.0,93,0.00,CLR,,0.00,WeatherDisplay:10.37,2013-01-27 05:58:00,
2013-01-27 00:59:00,21.9,20.2,30.45,SSW,198,0.0,0.0,93,0.00,CLR,,0.00,WeatherDisplay:10.37,2013-01-27 05:59:00,
2013-01-27 01:00:00,21.9,20.2,30.45,SSW,198,0.0,0.0,93,0.00,CLR,,0.00,WeatherDisplay:10.37,2013-01-27 06:00:00,
2013-01-27 01:04:00,21.9,20.4,30.44,SSW,198,0.0,0.0,94,0.00,CLR,,0.00,WeatherDisplay:10.37,2013-01-27 06:04:00,
2013-01-27 01:05:00,21.8,20.3,30.45,SSW,198,0.0,0.0,94,0.00,CLR,,0.00,WeatherDisplay:10.37,2013-01-27 06:05:00,
2013-01-27 01:09:00,21.7,20.2,30.44,SSW,198,1.1,1.1,94,0.00,CLR,,0.00,WeatherDisplay:10.37,2013-01-27 06:09:00,
2013-01-27 01:10:00,21.6,20.1,30.44,SSW,198,1.1,1.1,94,0.00,CLR,,0.00,WeatherDisplay:10.37,2013-01-27 06:10:00,
2013-01-27 01:14:00,21.5,20.0,30.44,SSW,198,1.1,0.0,94,0.00,CLR,,0.00,WeatherDisplay:10.37,2013-01-27 06:14:00,
2013-01-27 01:15:00,21.5,20.0,30.44,SSW,198,0.0,0.0,94,0.00,CLR,,0.00,WeatherDisplay:10.37,2013-01-27 06:15:00,
2013-01-27 01:20:00,21.5,20.0,30.45,SSW,198,0.0,0.0,94,0.00,CLR,,0.00,WeatherDisplay:10.37,2013-01-27 06:20:00,
2013-01-27 01:21:00,21.4,19.9,30.45,SSW,198,0.0,0.0,94,0.00,CLR,,0.00,WeatherDisplay:10.37,2013-01-27 06:21:00,
2013-01-27 01:25:00,21.4,19.9,30.45,SSW,198,0.0,0.0,94,0.00,CLR,,0.00,WeatherDisplay:10.37,2013-01-27 06:25:00,
2013-01-27 01:26:00,21.4,19.9,30.45,SSW,198,0.0,0.0,94,0.00,CLR,,0.00,WeatherDisplay:10.37,2013-01-27 06:26:00,
2013-01-27 01:30:00,21.2,19.7,30.45,SSW,198,0.0,0.0,94,0.00,CLR,,0.00,WeatherDisplay:10.37,2013-01-27 06:30:00,
2013-01-27 01:31:00,21.1,19.6,30.45,SSW,198,0.0,0.0,94,0.00,CLR,,0.00,WeatherDisplay:10.37,2013-01-27 06:31:00,
2013-01-27 01:35:00,21.0,19.5,30.45,SSW,198,0.0,0.0,94,0.00,CLR,,0.00,WeatherDisplay:10.37,2013-01-27 06:35:00,
2013-01-27 01:36:00,21.0,19.5,30.45,SSW,198,0.0,0.0,94,0.00,CLR,,0.00,WeatherDisplay:10.37,2013-01-27 06:36:00,
2013-01-27 01:40:00,21.0,19.5,30.45,SSW,198,0.0,0.0,94,0.00,CLR,,0.00,WeatherDisplay:10.37,2013-01-27 06:40:00,
2013-01-27 01:41:00,21.0,19.5,30.45,SSW,198,0.0,0.0,94,0.00,CLR,,0.00,WeatherDisplay:10.37,2013-01-27 06:41:00,
2013-01-27 01:46:00,20.9,19.4,30.45,SSW,198,0.0,0.0,94,0.00,CLR,,0.00,WeatherDisplay:10.37,2013-01-27 06:46:00,
2013-01-27 01:47:00,21.0,19.5,30.45,SSW,198,1.1,1.1,94,0.00,CLR,,0.00,WeatherDisplay:10.37,2013-01-27 06:47:00,
2013-01-27 01:51:00,20.9,19.4,30.45,SSW,198,0.0,0.0,94,0.00,CLR,,0.00,WeatherDisplay:10.37,2013-01-27 06:51:00,
2013-01-27 01:52:00,20.9,19.4,30.45,SSW,198,1.1,0.0,94,0.00,CLR,,0.00,WeatherDisplay:10.37,2013-01-27 06:52:00,
2013-01-27 01:56:00,21.0,19.5,30.45,SSW,198,0.0,0.1,94,0.00,CLR,,0.00,WeatherDisplay:10.37,2013-01-27 06:56:00,
2013-01-27 01:57:00,21.1,19.6,30.45,SSW,198,1.1,1.1,94,0.00,CLR,,0.00,WeatherDisplay:10.37,2013-01-27 06:57:00,
2013-01-27 02:01:00,21.2,20.0,30.45,SSW,198,0.0,0.0,95,0.00,CLR,,0.00,WeatherDisplay:10.37,2013-01-27 07:01:00,
2013-01-27 02:02:00,21.3,20.1,30.45,SSW,198,0.0,0.0,95,0.00,CLR,,0.00,WeatherDisplay:10.37,2013-01-27 07:02:00,
2013-01-27 02:06:00,21.3,19.8,30.45,SSW,198,1.1,1.1,94,0.00,CLR,,0.00,WeatherDisplay:10.37,2013-01-27 07:06:00,
2013-01-27 02:07:00,21.3,19.8,30.45,SSW,198,1.1,1.1,94,0.00,CLR,,0.00,WeatherDisplay:10.37,2013-01-27 07:07:00,
2013-01-27 02:08:00,21.3,19.8,30.45,SSW,198,0.0,0.0,94,0.00,CLR,,0.00,WeatherDisplay:10.37,2013-01-27 07:08:00,
2013-01-27 02:13:00,21.4,19.9,30.45,SSW,198,1.1,1.1,94,0.00,CLR,,0.00,WeatherDisplay:10.37,2013-01-27 07:13:00,
2013-01-27 02:18:00,21.5,20.3,30.45,SSW,198,1.1,1.1,95,0.00,CLR,,0.00,WeatherDisplay:10.37,2013-01-27 07:18:00,
2013-01-27 02:19:00,21.5,20.3,30.45,SSW,198,0.0,0.0,95,0.00,CLR,,0.00,WeatherDisplay:10.37,2013-01-27 07:19:00,
2013-01-27 02:23:00,21.4,19.9,30.45,SSW,198,1.1,1.1,94,0.00,CLR,,0.00,WeatherDisplay:10.37,2013-01-27 07:23:00,
2013-01-27 02:24:00,21.4,19.9,30.45,SSW,198,1.1,1.1,94,0.00,CLR,,0.00,WeatherDisplay:10.37,2013-01-27 07:24:00,
2013-01-27 02:28:00,21.4,19.9,30.45,SSW,198,1.1,1.1,94,0.00,CLR,,0.00,WeatherDisplay:10.37,2013-01-27 07:28:00,
2013-01-27 02:29:00,21.4,19.9,30.45,SSW,198,1.1,1.1,94,0.00,CLR,,0.00,WeatherDisplay:10.37,2013-01-27 07:29:00,
2013-01-27 02:33:00,21.3,19.8,30.45,SSW,198,1.1,1.1,94,0.00,CLR,,0.00,WeatherDisplay:10.37,2013-01-27 07:33:00,
2013-01-27 02:34:00,21.3,19.8,30.45,SSW,198,1.1,1.1,94,0.00,CLR,,0.00,WeatherDisplay:10.37,2013-01-27 07:34:00,
2013-01-27 02:38:00,21.3,19.8,30.45,SSW,198,0.0,0.0,94,0.00,CLR,,0.00,WeatherDisplay:10.37,2013-01-27 07:38:00,
2013-01-27 02:39:00,21.3,19.8,30.46,SSW,198,1.1,0.0,94,0.00,CLR,,0.00,WeatherDisplay:10.37,2013-01-27 07:39:00,
2013-01-27 02:40:00,21.3,19.8,30.45,SSW,198,0.0,0.0,94,0.00,CLR,,0.00,WeatherDisplay:10.37,2013-01-27 07:40:00,
2013-01-27 02:43:00,21.3,19.8,30.45,SSW,198,1.1,1.1,94,0.00,CLR,,0.00,WeatherDisplay:10.37,2013-01-27 07:43:00,
2013-01-27 02:44:00,21.3,19.8,30.45,SSW,198,1.1,1.1,94,0.00,CLR,,0.00,WeatherDisplay:10.37,2013-01-27 07:44:00,
2013-01-27 02:45:00,21.3,19.8,30.45,SSW,198,1.1,1.1,94,0.00,CLR,,0.00,WeatherDisplay:10.37,2013-01-27 07:45:00,
2013-01-27 02:48:00,21.3,19.8,30.45,SSW,198,1.1,0.0,94,0.00,CLR,,0.00,WeatherDisplay:10.37,2013-01-27 07:48:00,
2013-01-27 02:49:00,21.3,19.8,30.45,SSW,198,1.1,0.0,94,0.00,CLR,,0.00,WeatherDisplay:10.37,2013-01-27 07:49:00,
2013-01-27 02:50:00,21.2,19.7,30.45,SSW,198,0.0,0.0,94,0.00,CLR,,0.00,WeatherDisplay:10.37,2013-01-27 07:50:00,
2013-01-27 02:54:00,21.1,19.6,30.45,SSW,198,0.0,0.0,94,0.00,CLR,,0.00,WeatherDisplay:10.37,2013-01-27 07:54:00,
2013-01-27 02:55:00,21.1,19.6,30.45,SSW,198,0.0,0.0,94,0.00,CLR,,0.00,WeatherDisplay:10.37,2013-01-27 07:55:00,
2013-01-27 02:59:00,20.9,19.4,30.45,SSW,198,0.0,0.0,94,0.00,CLR,,0.00,WeatherDisplay:10.37,2013-01-27 07:59:00,
2013-01-27 03:00:00,20.9,19.4,30.44,SSW,198,0.0,0.0,94,0.00,CLR,,0.00,WeatherDisplay:10.37,2013-01-27 08:00:00,
2013-01-27 03:01:00,20.9,19.4,30.45,SSW,198,0.0,0.0,94,0.00,CLR,,0.00,WeatherDisplay:10.37,2013-01-27 08:01:00,
2013-01-27 03:04:00,20.8,19.3,30.44,SSW,198,1.1,0.0,94,0.00,CLR,,0.00,WeatherDisplay:10.37,2013-01-27 08:04:00,
2013-01-27 03:06:00,20.8,19.3,30.45,SSW,198,0.0,0.0,94,0.00,CLR,,0.00,WeatherDisplay:10.37,2013-01-27 08:06:00,
2013-01-27 03:09:00,20.8,19.3,30.44,SSW,198,0.0,0.0,94,0.00,CLR,,0.00,WeatherDisplay:10.37,2013-01-27 08:09:00,
2013-01-27 03:10:00,20.8,19.3,30.44,SSW,198,1.0,1.0,94,0.00,CLR,,0.00,WeatherDisplay:10.37,2013-01-27 08:10:00,
2013-01-27 03:11:00,20.8,19.3,30.44,SSW,198,1.1,1.1,94,0.00,CLR,,0.00,WeatherDisplay:10.37,2013-01-27 08:11:00,
2013-01-27 03:15:00,21.0,19.5,30.45,SSW,198,0.0,0.0,94,0.00,CLR,,0.00,WeatherDisplay:10.37,2013-01-27 08:15:00,
2013-01-27 03:16:00,21.0,19.5,30.45,SSW,198,1.1,1.1,94,0.00,CLR,,0.00,WeatherDisplay:10.37,2013-01-27 08:16:00,
2013-01-27 03:20:00,21.0,19.5,30.45,SSW,198,0.0,1.0,94,0.00,CLR,,0.00,WeatherDisplay:10.37,2013-01-27 08:20:00,
2013-01-27 03:21:00,20.9,19.4,30.45,SSW,198,0.0,0.0,94,0.00,CLR,,0.00,WeatherDisplay:10.37,2013-01-27 08:21:00,
2013-01-27 03:25:00,20.8,19.3,30.44,SSW,198,0.0,0.0,94,0.00,CLR,,0.00,WeatherDisplay:10.37,2013-01-27 08:25:00,
2013-01-27 03:26:00,20.8,19.3,30.44,SSW,198,0.0,0.0,94,0.00,CLR,,0.00,WeatherDisplay:10.37,2013-01-27 08:26:00,
2013-01-27 03:27:00,20.7,19.2,30.44,SSW,198,0.0,0.0,94,0.00,CLR,,0.00,WeatherDisplay:10.37,2013-01-27 08:27:00,
2013-01-27 03:30:00,20.5,18.8,30.44,SSW,198,0.0,0.0,93,0.00,CLR,,0.00,WeatherDisplay:10.37,2013-01-27 08:30:00,
2013-01-27 03:31:00,20.4,18.7,30.44,SSW,198,0.0,0.0,93,0.00,CLR,,0.00,WeatherDisplay:10.37,2013-01-27 08:31:00,
2013-01-27 03:32:00,20.4,18.7,30.44,SSW,198,0.0,0.0,93,0.00,CLR,,0.00,WeatherDisplay:10.37,2013-01-27 08:32:00,
2013-01-27 03:35:00,20.2,18.5,30.44,SSW,198,0.0,0.0,93,0.00,CLR,,0.00,WeatherDisplay:10.37,2013-01-27 08:35:00,
2013-01-27 03:36:00,20.2,18.5,30.44,SSW,198,0.0,0.0,93,0.00,CLR,,0.00,WeatherDisplay:10.37,2013-01-27 08:36:00,
2013-01-27 03:37:00,20.2,18.5,30.44,SSW,198,0.0,0.0,93,0.00,CLR,,0.00,WeatherDisplay:10.37,2013-01-27 08:37:00,
2013-01-27 03:40:00,20.1,18.4,30.44,SSW,198,0.0,0.0,93,0.00,CLR,,0.00,WeatherDisplay:10.37,2013-01-27 08:40:00,
2013-01-27 03:41:00,20.1,18.4,30.44,SSW,198,0.0,0.0,93,0.00,CLR,,0.00,WeatherDisplay:10.37,2013-01-27 08:41:00,
2013-01-27 03:42:00,20.0,18.3,30.44,SSW,198,0.0,0.0,93,0.00,CLR,,0.00,WeatherDisplay:10.37,2013-01-27 08:42:00,
2013-01-27 03:46:00,19.9,18.2,30.44,SSW,198,0.0,0.0,93,0.00,CLR,,0.00,WeatherDisplay:10.37,2013-01-27 08:46:00,
2013-01-27 03:47:00,19.9,18.2,30.44,SSW,198,0.0,0.0,93,0.00,CLR,,0.00,WeatherDisplay:10.37,2013-01-27 08:47:00,
2013-01-27 03:51:00,19.8,18.1,30.44,SSW,198,0.0,0.0,93,0.00,CLR,,0.00,WeatherDisplay:10.37,2013-01-27 08:51:00,
2013-01-27 03:52:00,19.8,18.1,30.44,SSW,198,0.0,0.0,93,0.00,CLR,,0.00,WeatherDisplay:10.37,2013-01-27 08:52:00,
2013-01-27 03:56:00,19.7,18.0,30.44,SSW,198,0.0,0.0,93,0.00,CLR,,0.00,WeatherDisplay:10.37,2013-01-27 08:56:00,
2013-01-27 03:57:00,19.7,18.0,30.44,SSW,198,0.0,0.0,93,0.00,CLR,,0.00,WeatherDisplay:10.37,2013-01-27 08:57:00,
2013-01-27 03:58:00,19.7,18.3,30.44,SSW,198,0.0,0.5,94,0.00,CLR,,0.00,WeatherDisplay:10.37,2013-01-27 08:58:00,
2013-01-27 04:01:00,19.9,18.5,30.44,SSW,198,0.0,0.0,94,0.00,CLR,,0.00,WeatherDisplay:10.37,2013-01-27 09:01:00,
2013-01-27 04:02:00,20.0,18.6,30.44,SSW,198,0.0,0.0,94,0.00,CLR,,0.00,WeatherDisplay:10.37,2013-01-27 09:02:00,
2013-01-27 04:03:00,19.9,18.5,30.44,SSW,198,0.0,0.0,94,0.00,CLR,,0.00,WeatherDisplay:10.37,2013-01-27 09:03:00,
2013-01-27 04:06:00,19.8,18.4,30.44,SSW,198,0.0,0.0,94,0.00,CLR,,0.00,WeatherDisplay:10.37,2013-01-27 09:06:00,
2013-01-27 04:07:00,19.8,18.4,30.44,SSW,198,0.0,0.0,94,0.00,CLR,,0.00,WeatherDisplay:10.37,2013-01-27 09:07:00,
2013-01-27 04:08:00,19.7,18.0,30.44,SSW,198,0.0,0.0,93,0.00,CLR,,0.00,WeatherDisplay:10.37,2013-01-27 09:08:00,
2013-01-27 04:12:00,19.7,18.3,30.44,SSW,198,0.0,0.0,94,0.00,CLR,,0.00,WeatherDisplay:10.37,2013-01-27 09:12:00,
2013-01-27 04:13:00,19.6,18.2,30.44,SSW,198,0.0,0.0,94,0.00,CLR,,0.00,WeatherDisplay:10.37,2013-01-27 09:13:00,
2013-01-27 04:14:00,19.6,18.2,30.44,SSW,198,0.0,0.0,94,0.00,CLR,,0.00,WeatherDisplay:10.37,2013-01-27 09:14:00,
2013-01-27 04:17:00,19.6,18.2,30.44,SSW,198,0.0,0.0,94,0.00,CLR,,0.00,WeatherDisplay:10.37,2013-01-27 09:17:00,
2013-01-27 04:19:00,19.5,17.8,30.44,SSW,198,0.0,0.1,93,0.00,CLR,,0.00,WeatherDisplay:10.37,2013-01-27 09:19:00,
2013-01-27 04:22:00,19.4,17.7,30.44,SSW,198,0.0,0.0,93,0.00,CLR,,0.00,WeatherDisplay:10.37,2013-01-27 09:22:00,
2013-01-27 04:23:00,19.4,17.7,30.44,SSW,198,0.0,0.0,93,0.00,CLR,,0.00,WeatherDisplay:10.37,2013-01-27 09:23:00,
2013-01-27 04:24:00,19.4,17.7,30.44,SSW,198,0.0,0.0,93,0.00,CLR,,0.00,WeatherDisplay:10.37,2013-01-27 09:24:00,
2013-01-27 04:28:00,19.3,17.9,30.44,SSW,198,0.0,0.0,94,0.00,CLR,,0.00,WeatherDisplay:10.37,2013-01-27 09:28:00,
2013-01-27 04:29:00,19.3,17.9,30.44,SSW,198,0.0,0.0,94,0.00,CLR,,0.00,WeatherDisplay:10.37,2013-01-27 09:29:00,
2013-01-27 04:30:00,19.3,17.9,30.44,SSW,198,0.0,0.0,94,0.00,CLR,,0.00,WeatherDisplay:10.37,2013-01-27 09:30:00,
2013-01-27 04:33:00,19.4,18.0,30.44,SSW,198,0.0,0.0,94,0.00,CLR,,0.00,WeatherDisplay:10.37,2013-01-27 09:33:00,
2013-01-27 04:34:00,19.4,18.0,30.44,SSW,198,0.0,0.0,94,0.00,CLR,,0.00,WeatherDisplay:10.37,2013-01-27 09:34:00,
2013-01-27 04:35:00,19.4,18.0,30.44,SSW,198,0.0,0.0,94,0.00,CLR,,0.00,WeatherDisplay:10.37,2013-01-27 09:35:00,
2013-01-27 04:38:00,19.4,18.0,30.44,SSW,198,1.0,0.0,94,0.00,CLR,,0.00,WeatherDisplay:10.37,2013-01-27 09:38:00,
2013-01-27 04:39:00,19.4,18.0,30.44,SSW,198,0.0,0.0,94,0.00,CLR,,0.00,WeatherDisplay:10.37,2013-01-27 09:39:00,
2013-01-27 04:40:00,19.5,18.1,30.44,SSW,198,0.0,0.0,94,0.00,CLR,,0.00,WeatherDisplay:10.37,2013-01-27 09:40:00,
2013-01-27 04:43:00,19.6,18.2,30.44,SSW,199,0.0,0.0,94,0.00,CLR,,0.00,WeatherDisplay:10.37,2013-01-27 09:43:00,
2013-01-27 04:44:00,19.7,18.3,30.44,SSW,198,0.0,0.0,94,0.00,CLR,,0.00,WeatherDisplay:10.37,2013-01-27 09:44:00,
2013-01-27 04:45:00,19.7,18.3,30.45,SSW,198,0.0,0.0,94,0.00,CLR,,0.00,WeatherDisplay:10.37,2013-01-27 09:45:00,
2013-01-27 04:48:00,19.6,18.2,30.44,SSW,198,0.0,0.0,94,0.00,CLR,,0.00,WeatherDisplay:10.37,2013-01-27 09:48:00,
2013-01-27 04:49:00,19.5,18.1,30.45,SSW,198,0.0,0.0,94,0.00,CLR,,0.00,WeatherDisplay:10.37,2013-01-27 09:49:00,
2013-01-27 04:50:00,19.5,18.0,30.45,SSW,198,0.0,0.0,94,0.00,CLR,,0.00,WeatherDisplay:10.37,2013-01-27 09:50:00,
2013-01-27 04:51:00,19.4,17.7,30.45,SSW,198,0.0,0.0,93,0.00,CLR,,0.00,WeatherDisplay:10.37,2013-01-27 09:51:00,
2013-01-27 04:53:00,19.3,17.6,30.45,SSW,198,0.0,0.0,93,0.00,CLR,,0.00,WeatherDisplay:10.37,2013-01-27 09:53:00,
2013-01-27 04:55:00,19.3,17.9,30.44,SSW,198,1.1,0.0,94,0.00,CLR,,0.00,WeatherDisplay:10.37,2013-01-27 09:55:00,
2013-01-27 04:56:00,19.4,18.0,30.44,SSW,198,0.0,0.0,94,0.00,CLR,,0.00,WeatherDisplay:10.37,2013-01-27 09:56:00,
2013-01-27 04:58:00,19.4,18.0,30.44,SSW,198,0.0,0.0,94,0.00,CLR,,0.00,WeatherDisplay:10.37,2013-01-27 09:58:00,
2013-01-27 05:00:00,19.3,17.9,30.44,SSW,198,0.0,0.0,94,0.00,CLR,,0.00,WeatherDisplay:10.37,2013-01-27 10:00:00,
2013-01-27 05:02:00,19.2,17.5,30.45,SSW,198,1.1,1.1,93,0.00,CLR,,0.00,WeatherDisplay:10.37,2013-01-27 10:02:00,
2013-01-27 05:03:00,19.2,17.8,30.45,SSW,198,0.0,0.0,94,0.00,CLR,,0.00,WeatherDisplay:10.37,2013-01-27 10:03:00,
2013-01-27 05:05:00,19.3,17.8,30.45,SSW,198,0.0,1.0,94,0.00,CLR,,0.00,WeatherDisplay:10.37,2013-01-27 10:05:00,
2013-01-27 05:07:00,19.5,18.1,30.45,SSW,198,0.0,0.0,94,0.00,CLR,,0.00,WeatherDisplay:10.37,2013-01-27 10:07:00,
2013-01-27 05:08:00,19.6,18.2,30.45,SSW,198,0.0,0.0,94,0.00,CLR,,0.00,WeatherDisplay:10.37,2013-01-27 10:08:00,
2013-01-27 05:10:00,19.6,18.2,30.45,SSW,198,1.1,0.0,94,0.00,CLR,,0.00,WeatherDisplay:10.37,2013-01-27 10:10:00,
2013-01-27 05:12:00,19.5,18.1,30.45,SSW,198,0.0,0.0,94,0.00,CLR,,0.00,WeatherDisplay:10.37,2013-01-27 10:12:00,
2013-01-27 05:13:00,19.5,18.1,30.45,SSW,198,0.0,0.0,94,0.00,CLR,,0.00,WeatherDisplay:10.37,2013-01-27 10:13:00,
2013-01-27 05:15:00,19.5,18.1,30.45,SSW,198,0.0,0.0,94,0.00,CLR,,0.00,WeatherDisplay:10.37,2013-01-27 10:15:00,
2013-01-27 05:17:00,19.5,18.1,30.45,SSW,198,0.0,0.0,94,0.00,CLR,,0.00,WeatherDisplay:10.37,2013-01-27 10:17:00,
2013-01-27 05:18:00,19.5,18.1,30.45,SSW,198,0.0,0.0,94,0.00,CLR,,0.00,WeatherDisplay:10.37,2013-01-27 10:18:00,
2013-01-27 05:20:00,19.4,18.0,30.45,SSW,198,0.0,0.0,94,0.00,CLR,,0.00,WeatherDisplay:10.37,2013-01-27 10:20:00,
2013-01-27 05:23:00,19.4,18.0,30.45,SSW,198,0.0,0.0,94,0.00,CLR,,0.00,WeatherDisplay:10.37,2013-01-27 10:23:00,
2013-01-27 05:25:00,19.3,17.6,30.45,SSW,198,0.0,0.0,93,0.00,CLR,,0.00,WeatherDisplay:10.37,2013-01-27 10:25:00,
2013-01-27 05:28:00,19.2,17.5,30.45,SSW,198,0.0,0.0,93,0.00,CLR,,0.00,WeatherDisplay:10.37,2013-01-27 10:28:00,
2013-01-27 05:30:00,19.2,17.8,30.45,SSW,198,1.1,0.0,94,0.00,CLR,,0.00,WeatherDisplay:10.37,2013-01-27 10:30:00,
2013-01-27 05:31:00,19.2,17.8,30.45,SSW,198,1.1,0.0,94,0.00,CLR,,0.00,WeatherDisplay:10.37,2013-01-27 10:31:00,
2013-01-27 05:34:00,19.3,17.9,30.44,SSW,198,1.1,0.0,94,0.00,CLR,,0.00,WeatherDisplay:10.37,2013-01-27 10:34:00,
2013-01-27 05:35:00,19.4,18.0,30.44,SSW,198,0.0,0.0,94,0.00,CLR,,0.00,WeatherDisplay:10.37,2013-01-27 10:35:00,
2013-01-27 05:36:00,19.4,18.0,30.44,SSW,198,0.0,0.0,94,0.00,CLR,,0.00,WeatherDisplay:10.37,2013-01-27 10:36:00,
2013-01-27 05:39:00,19.4,18.0,30.44,SSW,198,0.0,0.0,94,0.00,CLR,,0.00,WeatherDisplay:10.37,2013-01-27 10:39:00,
2013-01-27 05:41:00,19.4,18.0,30.44,SSW,198,0.0,0.0,94,0.00,CLR,,0.00,WeatherDisplay:10.37,2013-01-27 10:41:00,
2013-01-27 05:44:00,19.4,18.0,30.44,SSW,198,1.1,0.0,94,0.00,CLR,,0.00,WeatherDisplay:10.37,2013-01-27 10:44:00,
2013-01-27 05:46:00,19.3,17.9,30.44,SSW,198,0.0,0.0,94,0.00,CLR,,0.00,WeatherDisplay:10.37,2013-01-27 10:46:00,
2013-01-27 05:49:00,19.4,18.0,30.44,SSW,198,1.1,1.1,94,0.00,CLR,,0.00,WeatherDisplay:10.37,2013-01-27 10:49:00,
2013-01-27 05:51:00,19.4,18.0,30.45,SSW,198,1.1,1.1,94,0.00,CLR,,0.00,WeatherDisplay:10.37,2013-01-27 10:51:00,
2013-01-27 05:54:00,19.6,18.2,30.44,SSW,198,0.0,0.1,94,0.00,CLR,,0.00,WeatherDisplay:10.37,2013-01-27 10:54:00,
2013-01-27 05:56:00,19.6,18.2,30.45,SSW,198,0.0,0.0,94,0.00,CLR,,0.00,WeatherDisplay:10.37,2013-01-27 10:56:00,
2013-01-27 05:57:00,19.6,18.2,30.45,SSW,198,0.0,0.0,94,0.00,CLR,,0.00,WeatherDisplay:10.37,2013-01-27 10:57:00,
2013-01-27 05:59:00,19.6,18.2,30.45,SSW,198,0.0,0.0,94,0.00,CLR,,0.00,WeatherDisplay:10.37,2013-01-27 10:59:00,
2013-01-27 06:02:00,19.6,18.2,30.45,SSW,198,0.0,0.0,94,0.00,CLR,,0.00,WeatherDisplay:10.37,2013-01-27 11:02:00,
2013-01-27 06:04:00,19.6,18.2,30.45,SSW,198,0.0,0.0,94,0.00,CLR,,0.00,WeatherDisplay:10.37,2013-01-27 11:04:00,
2013-01-27 06:05:00,19.6,18.2,30.45,SSW,198,0.0,0.0,94,0.00,CLR,,0.00,WeatherDisplay:10.37,2013-01-27 11:05:00,
2013-01-27 06:07:00,19.6,18.2,30.45,SSW,198,0.0,0.0,94,0.00,CLR,,0.00,WeatherDisplay:10.37,2013-01-27 11:07:00,
2013-01-27 06:09:00,19.5,18.1,30.45,SSW,198,0.0,0.0,94,0.00,CLR,,0.00,WeatherDisplay:10.37,2013-01-27 11:09:00,
2013-01-27 06:10:00,19.5,18.1,30.45,SSW,198,0.0,0.0,94,0.00,CLR,,0.00,WeatherDisplay:10.37,2013-01-27 11:10:00,
2013-01-27 06:12:00,19.5,18.1,30.45,SSW,198,0.0,0.0,94,0.00,CLR,,0.00,WeatherDisplay:10.37,2013-01-27 11:12:00,
2013-01-27 06:14:00,19.4,18.0,30.45,SSW,198,0.0,0.0,94,0.00,CLR,,0.00,WeatherDisplay:10.37,2013-01-27 11:14:00,
2013-01-27 06:15:00,19.4,18.0,30.45,SSW,198,0.0,0.0,94,0.00,CLR,,0.00,WeatherDisplay:10.37,2013-01-27 11:15:00,
2013-01-27 06:17:00,19.4,18.0,30.45,SSW,198,0.0,0.0,94,0.00,CLR,,0.00,WeatherDisplay:10.37,2013-01-27 11:17:00,
2013-01-27 06:20:00,19.3,17.9,30.45,SSW,198,0.0,0.0,94,0.00,CLR,,0.00,WeatherDisplay:10.37,2013-01-27 11:20:00,
2013-01-27 06:21:00,19.3,17.9,30.45,SSW,198,0.0,0.0,94,0.00,CLR,,0.00,WeatherDisplay:10.37,2013-01-27 11:21:00,
2013-01-27 06:22:00,19.3,17.9,30.45,SSW,198,0.0,0.1,94,0.00,CLR,,0.00,WeatherDisplay:10.37,2013-01-27 11:22:00,
2013-01-27 06:23:00,19.3,17.9,30.46,SSW,198,0.0,0.1,94,0.00,CLR,,0.00,WeatherDisplay:10.37,2013-01-27 11:23:00,
2013-01-27 06:25:00,19.3,17.9,30.46,SSW,198,0.0,0.0,94,0.00,CLR,,0.00,WeatherDisplay:10.37,2013-01-27 11:25:00,
2013-01-27 06:26:00,19.3,17.9,30.46,SSW,198,0.0,0.0,94,0.00,CLR,,0.00,WeatherDisplay:10.37,2013-01-27 11:26:00,
2013-01-27 06:27:00,19.3,17.9,30.46,SSW,198,0.0,0.0,94,0.00,CLR,,0.00,WeatherDisplay:10.37,2013-01-27 11:27:00,
2013-01-27 06:28:00,19.3,17.9,30.46,SSW,198,0.0,0.0,94,0.00,CLR,,0.00,WeatherDisplay:10.37,2013-01-27 11:28:00,
2013-01-27 06:30:00,19.2,17.8,30.46,SSW,198,0.0,0.0,94,0.00,CLR,,0.00,WeatherDisplay:10.37,2013-01-27 11:30:00,
2013-01-27 06:31:00,19.2,17.8,30.46,SSW,198,0.0,0.0,94,0.00,CLR,,0.00,WeatherDisplay:10.37,2013-01-27 11:31:00,
2013-01-27 06:32:00,19.1,17.7,30.46,SSW,198,0.0,0.0,94,0.00,CLR,,0.00,WeatherDisplay:10.37,2013-01-27 11:32:00,
2013-01-27 06:33:00,19.1,17.7,30.46,SSW,198,0.0,0.1,94,0.00,CLR,,0.00,WeatherDisplay:10.37,2013-01-27 11:33:00,
2013-01-27 06:35:00,19.1,17.7,30.46,SSW,198,0.0,0.0,94,0.00,CLR,,0.00,WeatherDisplay:10.37,2013-01-27 11:35:00,
2013-01-27 06:36:00,19.1,17.7,30.46,SSW,198,0.0,0.1,94,0.00,CLR,,0.00,WeatherDisplay:10.37,2013-01-27 11:36:00,
2013-01-27 06:38:00,19.2,17.8,30.46,SSW,200,1.1,1.1,94,0.00,CLR,,0.00,WeatherDisplay:10.37,2013-01-27 11:38:00,
2013-01-27 06:40:00,19.3,17.9,30.46,SSW,198,0.0,0.0,94,0.00,CLR,,0.00,WeatherDisplay:10.37,2013-01-27 11:40:00,
2013-01-27 06:41:00,19.3,17.9,30.46,SSW,198,0.0,0.1,94,0.00,CLR,,0.00,WeatherDisplay:10.37,2013-01-27 11:41:00,
2013-01-27 06:43:00,19.4,18.0,30.46,SSW,198,1.1,0.0,94,0.00,CLR,,0.00,WeatherDisplay:10.37,2013-01-27 11:43:00,
2013-01-27 06:46:00,19.6,18.4,30.47,SSW,198,0.0,0.0,95,0.00,CLR,,0.00,WeatherDisplay:10.37,2013-01-27 11:46:00,
2013-01-27 06:47:00,19.7,18.5,30.47,SSW,198,0.0,0.0,95,0.00,CLR,,0.00,WeatherDisplay:10.37,2013-01-27 11:47:00,
2013-01-27 06:48:00,19.7,18.5,30.47,SSW,198,0.0,0.0,95,0.00,CLR,,0.00,WeatherDisplay:10.37,2013-01-27 11:48:00,
2013-01-27 06:51:00,19.6,18.2,30.47,SSW,198,0.0,0.0,94,0.00,CLR,,0.00,WeatherDisplay:10.37,2013-01-27 11:51:00,
2013-01-27 06:52:00,19.6,18.2,30.47,SSW,198,0.0,0.0,94,0.00,CLR,,0.00,WeatherDisplay:10.37,2013-01-27 11:52:00,
2013-01-27 06:53:00,19.5,18.1,30.47,SSW,198,0.0,0.0,94,0.00,CLR,,0.00,WeatherDisplay:10.37,2013-01-27 11:53:00,
2013-01-27 06:55:00,19.5,18.1,30.47,SSW,198,0.0,0.0,94,0.00,CLR,,0.00,WeatherDisplay:10.37,2013-01-27 11:55:00,
2013-01-27 06:57:00,19.6,18.2,30.47,SSW,198,0.0,0.0,94,0.00,CLR,,0.00,WeatherDisplay:10.37,2013-01-27 11:57:00,
2013-01-27 06:58:00,19.7,18.3,30.47,SSW,198,1.1,0.0,94,0.00,CLR,,0.00,WeatherDisplay:10.37,2013-01-27 11:58:00,
2013-01-27 07:00:00,19.8,18.6,30.47,SSW,198,1.1,1.1,95,0.00,CLR,,0.00,WeatherDisplay:10.37,2013-01-27 12:00:00,
2013-01-27 07:02:00,20.1,18.9,30.47,SSW,198,3.5,3.5,95,0.00,CLR,,0.00,WeatherDisplay:10.37,2013-01-27 12:02:00,
2013-01-27 07:03:00,20.4,19.2,30.47,SSW,198,2.3,2.3,95,0.00,CLR,,0.00,WeatherDisplay:10.37,2013-01-27 12:03:00,
2013-01-27 07:05:00,20.6,19.4,30.47,SSW,198,2.3,2.3,95,0.00,CLR,,0.00,WeatherDisplay:10.37,2013-01-27 12:05:00,
2013-01-27 07:07:00,20.8,19.6,30.47,SSW,198,2.3,2.3,95,0.00,CLR,,0.00,WeatherDisplay:10.37,2013-01-27 12:07:00,
2013-01-27 07:08:00,21.0,19.8,30.47,SSW,198,1.1,1.1,95,0.00,CLR,,0.00,WeatherDisplay:10.37,2013-01-27 12:08:00,
2013-01-27 07:10:00,21.1,19.9,30.47,SSW,198,2.3,2.3,95,0.00,CLR,,0.00,WeatherDisplay:10.37,2013-01-27 12:10:00,
2013-01-27 07:12:00,21.3,20.1,30.47,SSW,198,3.5,3.5,95,0.00,CLR,,0.00,WeatherDisplay:10.37,2013-01-27 12:12:00,
2013-01-27 07:13:00,21.3,20.1,30.47,SSW,198,2.3,2.3,95,0.00,CLR,,0.00,WeatherDisplay:10.37,2013-01-27 12:13:00,
2013-01-27 07:14:00,21.5,20.3,30.47,SSW,198,2.3,2.3,95,0.00,CLR,,0.00,WeatherDisplay:10.37,2013-01-27 12:14:00,
2013-01-27 07:16:00,21.6,20.1,30.47,SSW,198,2.3,2.3,94,0.00,CLR,,0.00,WeatherDisplay:10.37,2013-01-27 12:16:00,
2013-01-27 07:17:00,21.6,20.1,30.47,SSW,198,2.3,2.3,94,0.00,CLR,,0.00,WeatherDisplay:10.37,2013-01-27 12:17:00,
2013-01-27 07:18:00,21.7,20.2,30.47,SSW,198,2.3,2.3,94,0.00,CLR,,0.00,WeatherDisplay:10.37,2013-01-27 12:18:00,
2013-01-27 07:19:00,21.7,20.2,30.47,SSW,198,1.1,0.0,94,0.00,CLR,,0.00,WeatherDisplay:10.37,2013-01-27 12:19:00,
2013-01-27 07:21:00,21.8,20.3,30.47,SSW,198,1.1,1.1,94,0.00,CLR,,0.00,WeatherDisplay:10.37,2013-01-27 12:21:00,
2013-01-27 07:22:00,21.8,20.3,30.47,SSW,198,1.0,1.0,94,0.00,CLR,,0.00,WeatherDisplay:10.37,2013-01-27 12:22:00,
2013-01-27 07:23:00,21.8,20.3,30.47,SSW,198,2.0,2.0,94,0.00,CLR,,0.00,WeatherDisplay:10.37,2013-01-27 12:23:00,
2013-01-27 07:25:00,21.8,20.3,30.47,SSW,198,2.3,2.3,94,0.00,CLR,,0.00,WeatherDisplay:10.37,2013-01-27 12:25:00,
2013-01-27 07:26:00,21.9,20.4,30.48,SSW,198,1.1,1.1,94,0.00,CLR,,0.00,WeatherDisplay:10.37,2013-01-27 12:26:00,
2013-01-27 07:27:00,21.9,20.4,30.48,SSW,198,1.1,1.1,94,0.00,CLR,,0.00,WeatherDisplay:10.37,2013-01-27 12:27:00,
2013-01-27 07:28:00,21.9,20.2,30.48,SSW,198,1.1,0.0,93,0.00,CLR,,0.00,WeatherDisplay:10.37,2013-01-27 12:28:00,
2013-01-27 07:30:00,22.0,20.3,30.48,SSW,198,3.5,3.5,93,0.00,CLR,,0.00,WeatherDisplay:10.37,2013-01-27 12:30:00,
2013-01-27 07:32:00,22.1,20.6,30.48,SSW,198,3.5,3.5,94,0.00,CLR,,0.00,WeatherDisplay:10.37,2013-01-27 12:32:00,
2013-01-27 07:33:00,22.1,20.6,30.48,SSW,198,3.5,3.5,94,0.00,CLR,,0.00,WeatherDisplay:10.37,2013-01-27 12:33:00,
2013-01-27 07:35:00,22.2,20.5,30.48,SSW,198,2.3,2.3,93,0.00,CLR,,0.00,WeatherDisplay:10.37,2013-01-27 12:35:00,
2013-01-27 07:37:00,22.3,20.6,30.48,SSW,198,2.3,2.3,93,0.00,CLR,,0.00,WeatherDisplay:10.37,2013-01-27 12:37:00,
2013-01-27 07:38:00,22.3,20.6,30.48,SSW,198,1.1,1.2,93,0.00,CLR,,0.00,WeatherDisplay:10.37,2013-01-27 12:38:00,
2013-01-27 07:39:00,22.3,20.6,30.48,SSW,198,1.1,1.2,93,0.00,CLR,,0.00,WeatherDisplay:10.37,2013-01-27 12:39:00,
2013-01-27 07:40:00,22.3,20.6,30.48,SSW,198,1.1,1.1,93,0.00,CLR,,0.00,WeatherDisplay:10.37,2013-01-27 12:40:00,
2013-01-27 07:42:00,22.3,20.6,30.48,SSW,198,2.3,2.3,93,0.00,CLR,,0.00,WeatherDisplay:10.37,2013-01-27 12:42:00,
2013-01-27 07:44:00,22.4,20.7,30.48,SSW,198,3.5,3.5,93,0.00,CLR,,0.00,WeatherDisplay:10.37,2013-01-27 12:44:00,
2013-01-27 07:46:00,22.4,20.7,30.48,SSW,198,1.1,1.1,93,0.00,CLR,,0.00,WeatherDisplay:10.37,2013-01-27 12:46:00,
2013-01-27 07:47:00,22.4,20.4,30.48,SSW,198,1.1,1.2,92,0.00,CLR,,0.00,WeatherDisplay:10.37,2013-01-27 12:47:00,
2013-01-27 07:49:00,22.4,20.4,30.49,SSW,198,3.5,3.5,92,0.00,CLR,,0.00,WeatherDisplay:10.37,2013-01-27 12:49:00,
2013-01-27 07:51:00,22.4,20.4,30.49,SSW,198,2.3,2.3,92,0.00,CLR,,0.00,WeatherDisplay:10.37,2013-01-27 12:51:00,
2013-01-27 07:53:00,22.5,20.5,30.49,SSW,198,4.0,4.0,92,0.00,CLR,,0.00,WeatherDisplay:10.37,2013-01-27 12:53:00,
2013-01-27 07:54:00,22.5,20.5,30.49,SSW,198,4.6,4.6,92,0.00,CLR,,0.00,WeatherDisplay:10.37,2013-01-27 12:54:00,
2013-01-27 07:56:00,22.6,20.6,30.49,SSW,198,3.5,3.5,92,0.00,CLR,,0.00,WeatherDisplay:10.37,2013-01-27 12:56:00,
2013-01-27 07:58:00,22.8,20.8,30.49,SSW,198,3.5,3.5,92,0.00,CLR,,0.00,WeatherDisplay:10.37,2013-01-27 12:58:00,
2013-01-27 07:59:00,22.8,20.8,30.49,SSW,198,3.5,3.5,92,0.00,CLR,,0.00,WeatherDisplay:10.37,2013-01-27 12:59:00,
2013-01-27 08:01:00,22.8,20.8,30.49,SSW,198,2.3,2.3,92,0.00,CLR,,0.00,WeatherDisplay:10.37,2013-01-27 13:01:00,
2013-01-27 08:03:00,22.9,20.9,30.50,SSW,198,3.5,3.5,92,0.00,CLR,,0.00,WeatherDisplay:10.37,2013-01-27 13:03:00,
2013-01-27 08:04:00,22.9,20.9,30.50,SSW,198,3.5,3.5,92,0.00,CLR,,0.00,WeatherDisplay:10.37,2013-01-27 13:04:00,
2013-01-27 08:06:00,22.9,20.9,30.50,SSW,198,4.6,4.6,92,0.00,CLR,,0.00,WeatherDisplay:10.37,2013-01-27 13:06:00,
2013-01-27 08:09:00,23.0,21.0,30.50,SSW,198,3.0,3.0,92,0.00,CLR,,0.00,WeatherDisplay:10.37,2013-01-27 13:09:00,
2013-01-27 08:10:00,23.1,21.1,30.50,SSW,198,3.5,3.5,92,0.00,CLR,,0.00,WeatherDisplay:10.37,2013-01-27 13:10:00,
2013-01-27 08:11:00,23.1,21.1,30.50,SSW,198,4.6,4.6,92,0.00,CLR,,0.00,WeatherDisplay:10.37,2013-01-27 13:11:00,
2013-01-27 08:14:00,23.2,21.2,30.50,SSW,198,3.5,3.5,92,0.00,CLR,,0.00,WeatherDisplay:10.37,2013-01-27 13:14:00,
2013-01-27 08:15:00,23.3,21.1,30.50,SSW,198,4.0,4.0,91,0.00,CLR,,0.00,WeatherDisplay:10.37,2013-01-27 13:15:00,
2013-01-27 08:17:00,23.4,21.2,30.50,SSW,198,5.8,5.8,91,0.00,CLR,,0.00,WeatherDisplay:10.37,2013-01-27 13:17:00,
2013-01-27 08:19:00,23.4,21.2,30.50,SSW,198,5.8,5.8,91,0.00,CLR,,0.00,WeatherDisplay:10.37,2013-01-27 13:19:00,
2013-01-27 08:20:00,23.5,21.3,30.49,SSW,198,5.8,5.8,91,0.00,CLR,,0.00,WeatherDisplay:10.37,2013-01-27 13:20:00,
2013-01-27 08:22:00,23.6,21.4,30.49,SSW,198,5.0,5.0,91,0.00,CLR,,0.00,WeatherDisplay:10.37,2013-01-27 13:22:00,
2013-01-27 08:24:00,23.7,21.5,30.49,SSW,198,10.4,10.4,91,0.00,CLR,,0.00,WeatherDisplay:10.37,2013-01-27 13:24:00,
2013-01-27 08:25:00,23.8,21.6,30.49,SSW,198,4.6,4.6,91,0.00,CLR,,0.00,WeatherDisplay:10.37,2013-01-27 13:25:00,
2013-01-27 08:26:00,23.9,21.7,30.50,SSW,198,7.0,7.0,91,0.00,CLR,,0.00,WeatherDisplay:10.37,2013-01-27 13:26:00,
2013-01-27 08:28:00,24.0,21.8,30.50,SSW,198,7.0,7.0,91,0.00,CLR,,0.00,WeatherDisplay:10.37,2013-01-27 13:28:00,
2013-01-27 08:29:00,24.0,21.8,30.50,SSW,198,9.2,9.2,91,0.00,CLR,,0.00,WeatherDisplay:10.37,2013-01-27 13:29:00,
2013-01-27 08:31:00,24.2,21.7,30.50,SSW,198,3.5,3.5,90,0.00,CLR,,0.00,WeatherDisplay:10.37,2013-01-27 13:31:00,
2013-01-27 08:32:00,24.3,21.8,30.50,SSW,198,4.0,4.0,90,0.00,CLR,,0.00,WeatherDisplay:10.37,2013-01-27 13:32:00,
2013-01-27 08:33:00,24.4,21.9,30.50,SSW,198,4.6,4.6,90,0.00,CLR,,0.00,WeatherDisplay:10.37,2013-01-27 13:33:00,
2013-01-27 08:34:00,24.5,22.0,30.50,SSW,199,4.6,4.6,90,0.00,CLR,,0.00,WeatherDisplay:10.37,2013-01-27 13:34:00,
2013-01-27 08:36:00,24.7,22.2,30.50,SSW,199,3.5,3.5,90,0.00,CLR,,0.00,WeatherDisplay:10.37,2013-01-27 13:36:00,
2013-01-27 08:37:00,24.7,22.2,30.50,SSW,200,3.5,3.5,90,0.00,CLR,,0.00,WeatherDisplay:10.37,2013-01-27 13:37:00,
2013-01-27 08:38:00,24.8,22.3,30.50,SSW,199,3.5,3.5,90,0.00,CLR,,0.00,WeatherDisplay:10.37,2013-01-27 13:38:00,
2013-01-27 08:39:00,24.8,22.3,30.50,SSW,200,3.5,3.5,90,0.00,CLR,,0.00,WeatherDisplay:10.37,2013-01-27 13:39:00,
2013-01-27 08:41:00,25.0,22.5,30.50,SSW,200,4.6,4.6,90,0.00,CLR,,0.00,WeatherDisplay:10.37,2013-01-27 13:41:00,
2013-01-27 08:42:00,25.0,22.5,30.50,SSW,199,4.6,4.6,90,0.00,CLR,,0.00,WeatherDisplay:10.37,2013-01-27 13:42:00,
2013-01-27 08:44:00,25.1,22.3,30.50,SSW,199,4.6,4.6,89,0.00,CLR,,0.00,WeatherDisplay:10.37,2013-01-27 13:44:00,
2013-01-27 08:46:00,25.3,22.8,30.50,SSW,200,6.0,6.0,90,0.00,CLR,,0.00,WeatherDisplay:10.37,2013-01-27 13:46:00,
2013-01-27 08:47:00,25.3,22.8,30.50,SSW,200,6.9,6.9,90,0.00,CLR,,0.00,WeatherDisplay:10.37,2013-01-27 13:47:00,
2013-01-27 08:49:00,25.5,23.0,30.50,SSW,200,6.0,6.0,90,0.00,CLR,,0.00,WeatherDisplay:10.37,2013-01-27 13:49:00,
2013-01-27 08:50:00,25.6,22.8,30.50,SSW,200,5.8,5.8,89,0.00,CLR,,0.00,WeatherDisplay:10.37,2013-01-27 13:50:00,
2013-01-27 08:52:00,25.7,22.9,30.50,SSW,199,4.0,4.0,89,0.00,CLR,,0.00,WeatherDisplay:10.37,2013-01-27 13:52:00,
2013-01-27 08:54:00,25.9,23.1,30.50,SSW,199,7.0,7.0,89,0.00,CLR,,0.00,WeatherDisplay:10.37,2013-01-27 13:54:00,
2013-01-27 08:56:00,25.9,22.8,30.50,SSW,199,8.1,8.1,88,0.00,CLR,,0.00,WeatherDisplay:10.37,2013-01-27 13:56:00,
2013-01-27 08:57:00,26.0,23.2,30.50,SSW,200,9.0,9.0,89,0.00,CLR,,0.00,WeatherDisplay:10.37,2013-01-27 13:57:00,
2013-01-27 09:00:00,26.1,23.0,30.50,SSW,200,6.0,10.0,88,0.00,CLR,,0.00,WeatherDisplay:10.37,2013-01-27 14:00:00,
2013-01-27 09:01:00,26.1,23.0,30.50,SSW,199,11.5,11.5,88,0.00,CLR,,0.00,WeatherDisplay:10.37,2013-01-27 14:01:00,
2013-01-27 09:02:00,26.1,23.0,30.51,SSW,200,11.5,11.5,88,0.00,CLR,,0.00,WeatherDisplay:10.37,2013-01-27 14:02:00,
2013-01-27 09:05:00,26.2,23.1,30.51,SSW,199,9.2,9.2,88,0.00,CLR,,0.00,WeatherDisplay:10.37,2013-01-27 14:05:00,
2013-01-27 09:06:00,26.3,23.2,30.51,SSW,199,9.0,9.0,88,0.00,CLR,,0.00,WeatherDisplay:10.37,2013-01-27 14:06:00,
2013-01-27 09:07:00,26.3,23.2,30.51,SSW,200,9.2,9.2,88,0.00,CLR,,0.00,WeatherDisplay:10.37,2013-01-27 14:07:00,
2013-01-27 09:08:00,26.4,23.3,30.51,SSW,200,9.2,9.2,88,0.00,CLR,,0.00,WeatherDisplay:10.37,2013-01-27 14:08:00,
2013-01-27 09:10:00,26.5,23.4,30.51,SSW,200,7.0,7.0,88,0.00,CLR,,0.00,WeatherDisplay:10.37,2013-01-27 14:10:00,
2013-01-27 09:12:00,26.6,23.5,30.51,SSW,200,8.1,8.1,88,0.00,CLR,,0.00,WeatherDisplay:10.37,2013-01-27 14:12:00,
2013-01-27 09:13:00,26.7,23.6,30.51,SSW,200,8.1,8.1,88,0.00,CLR,,0.00,WeatherDisplay:10.37,2013-01-27 14:13:00,
2013-01-27 09:15:00,26.8,23.4,30.51,SSW,199,10.4,10.4,87,0.00,CLR,,0.00,WeatherDisplay:10.37,2013-01-27 14:15:00,
2013-01-27 09:17:00,26.9,23.5,30.51,SSW,200,10.4,10.4,87,0.00,CLR,,0.00,WeatherDisplay:10.37,2013-01-27 14:17:00,
2013-01-27 09:18:00,26.9,23.5,30.51,SSW,200,10.4,10.4,87,0.00,CLR,,0.00,WeatherDisplay:10.37,2013-01-27 14:18:00,
2013-01-27 09:20:00,27.0,23.6,30.51,SSW,200,10.4,10.4,87,0.00,CLR,,0.00,WeatherDisplay:10.37,2013-01-27 14:20:00,
2013-01-27 09:23:00,27.1,24.0,30.51,SSW,199,10.4,10.4,88,0.00,CLR,,0.00,WeatherDisplay:10.37,2013-01-27 14:23:00,
2013-01-27 09:25:00,27.1,23.7,30.51,SSW,199,10.0,10.0,87,0.00,CLR,,0.00,WeatherDisplay:10.37,2013-01-27 14:25:00,
2013-01-27 09:28:00,27.2,23.8,30.51,SSW,199,10.4,10.4,87,0.00,CLR,,0.00,WeatherDisplay:10.37,2013-01-27 14:28:00,
2013-01-27 09:30:00,27.3,23.9,30.51,SSW,200,10.4,10.4,87,0.00,CLR,,0.00,WeatherDisplay:10.37,2013-01-27 14:30:00,
2013-01-27 09:33:00,27.5,24.1,30.51,SSW,199,6.9,6.9,87,0.00,CLR,,0.00,WeatherDisplay:10.37,2013-01-27 14:33:00,
2013-01-27 09:34:00,27.6,24.2,30.51,SSW,200,6.9,6.9,87,0.00,CLR,,0.00,WeatherDisplay:10.37,2013-01-27 14:34:00,
2013-01-27 09:35:00,27.7,24.3,30.52,SSW,200,6.9,6.9,87,0.00,CLR,,0.00,WeatherDisplay:10.37,2013-01-27 14:35:00,
2013-01-27 09:38:00,27.9,24.5,30.51,SSW,200,8.1,8.1,87,0.00,CLR,,0.00,WeatherDisplay:10.37,2013-01-27 14:38:00,
2013-01-27 09:39:00,28.0,24.6,30.51,SSW,199,8.1,8.1,87,0.00,CLR,,0.00,WeatherDisplay:10.37,2013-01-27 14:39:00,
2013-01-27 09:41:00,28.1,24.5,30.51,SSW,200,10.4,10.4,86,0.00,CLR,,0.00,WeatherDisplay:10.37,2013-01-27 14:41:00,
2013-01-27 09:43:00,28.2,24.6,30.51,ESE,113,9.2,9.2,86,0.00,CLR,,0.00,WeatherDisplay:10.37,2013-01-27 14:43:00,
2013-01-27 09:44:00,28.3,24.6,30.51,East,92,8.1,8.1,86,0.00,CLR,,0.00,WeatherDisplay:10.37,2013-01-27 14:44:00,
2013-01-27 09:46:00,28.4,24.7,30.51,East,88,6.9,6.9,86,0.00,CLR,,0.00,WeatherDisplay:10.37,2013-01-27 14:46:00,
2013-01-27 09:49:00,28.5,24.8,30.51,East,92,8.1,8.1,86,0.00,CLR,,0.00,WeatherDisplay:10.37,2013-01-27 14:49:00,
2013-01-27 09:51:00,28.6,24.9,30.51,East,95,8.1,8.1,86,0.00,CLR,,0.00,WeatherDisplay:10.37,2013-01-27 14:51:00,
2013-01-27 09:54:00,28.7,24.8,30.51,ESE,103,6.0,6.0,85,0.00,CLR,,0.00,WeatherDisplay:10.37,2013-01-27 14:54:00,
2013-01-27 09:56:00,28.7,24.8,30.51,ESE,122,6.9,6.9,85,0.00,CLR,,0.00,WeatherDisplay:10.37,2013-01-27 14:56:00,
2013-01-27 09:59:00,28.9,25.2,30.51,ESE,116,6.9,6.9,86,0.00,CLR,,0.00,WeatherDisplay:10.37,2013-01-27 14:59:00,
2013-01-27 10:02:00,29.0,25.3,30.51,ESE,105,8.1,8.1,86,0.00,CLR,,0.00,WeatherDisplay:10.37,2013-01-27 15:02:00,
2013-01-27 10:04:00,29.0,25.1,30.51,East,81,9.2,9.2,85,0.00,CLR,,0.00,WeatherDisplay:10.37,2013-01-27 15:04:00,
2013-01-27 10:05:00,29.0,25.1,30.51,ESE,120,9.2,9.2,85,0.00,CLR,,0.00,WeatherDisplay:10.37,2013-01-27 15:05:00,
2013-01-27 10:07:00,29.0,25.1,30.51,ESE,115,5.8,5.8,85,0.00,CLR,,0.00,WeatherDisplay:10.37,2013-01-27 15:07:00,
2013-01-27 10:10:00,29.0,25.1,30.51,SE,132,8.1,8.1,85,0.00,CLR,,0.00,WeatherDisplay:10.37,2013-01-27 15:10:00,
2013-01-27 10:13:00,29.3,25.4,30.51,ESE,103,8.1,8.1,85,0.00,CLR,,0.00,WeatherDisplay:10.37,2013-01-27 15:13:00,
2013-01-27 10:15:00,29.4,25.4,30.51,East,88,9.2,9.2,85,0.00,CLR,,0.00,WeatherDisplay:10.37,2013-01-27 15:15:00,
2013-01-27 10:18:00,29.7,25.7,30.51,East,95,8.0,8.0,85,0.00,CLR,,0.00,WeatherDisplay:10.37,2013-01-27 15:18:00,
2013-01-27 10:20:00,29.8,25.8,30.51,East,99,6.0,12.0,85,0.00,CLR,,0.00,WeatherDisplay:10.37,2013-01-27 15:20:00,
2013-01-27 10:23:00,29.9,25.7,30.51,SSE,167,6.9,6.9,84,0.00,CLR,,0.00,WeatherDisplay:10.37,2013-01-27 15:23:00,
2013-01-27 10:25:00,30.0,25.7,30.51,East,101,6.0,10.0,84,0.00,CLR,,0.00,WeatherDisplay:10.37,2013-01-27 15:25:00,
2013-01-27 10:26:00,30.1,25.8,30.51,ESE,108,9.2,9.2,84,0.00,CLR,,0.00,WeatherDisplay:10.37,2013-01-27 15:26:00,
2013-01-27 10:28:00,30.0,25.5,30.51,East,82,11.0,11.0,83,0.00,CLR,,0.00,WeatherDisplay:10.37,2013-01-27 15:28:00,
2013-01-27 10:30:00,30.1,25.6,30.52,East,81,11.5,11.5,83,0.00,CLR,,0.00,WeatherDisplay:10.37,2013-01-27 15:30:00,
2013-01-27 10:31:00,30.1,25.6,30.52,East,98,11.5,11.5,83,0.00,CLR,,0.00,WeatherDisplay:10.37,2013-01-27 15:31:00,
2013-01-27 10:33:00,30.1,25.3,30.52,SE,137,10.4,10.4,82,0.00,CLR,,0.00,WeatherDisplay:10.37,2013-01-27 15:33:00,
2013-01-27 10:36:00,30.2,25.1,30.52,East,92,10.0,10.0,81,0.00,CLR,,0.00,WeatherDisplay:10.37,2013-01-27 15:36:00,
2013-01-27 10:38:00,30.4,25.6,30.52,SE,131,9.2,9.2,82,0.00,CLR,,0.00,WeatherDisplay:10.37,2013-01-27 15:38:00,
2013-01-27 10:41:00,30.7,25.9,30.52,East,83,9.2,9.2,82,0.00,CLR,,0.00,WeatherDisplay:10.37,2013-01-27 15:41:00,
2013-01-27 10:44:00,31.1,26.2,30.52,ESE,115,5.8,5.8,82,0.00,CLR,,0.00,WeatherDisplay:10.37,2013-01-27 15:44:00,
2013-01-27 10:46:00,31.3,26.4,30.52,East,84,8.1,8.1,82,0.00,CLR,,0.00,WeatherDisplay:10.37,2013-01-27 15:46:00,
2013-01-27 10:47:00,31.3,26.1,30.52,East,87,10.4,10.4,81,0.00,CLR,,0.00,WeatherDisplay:10.37,2013-01-27 15:47:00,
2013-01-27 10:49:00,31.5,26.3,30.52,ESE,115,6.9,6.9,81,0.00,CLR,,0.00,WeatherDisplay:10.37,2013-01-27 15:49:00,
2013-01-27 10:51:00,31.7,26.5,30.52,East,84,8.1,8.1,81,0.00,CLR,,0.00,WeatherDisplay:10.37,2013-01-27 15:51:00,
2013-01-27 10:52:00,31.7,26.5,30.52,SE,133,6.9,6.9,81,0.00,CLR,,0.00,WeatherDisplay:10.37,2013-01-27 15:52:00,
2013-01-27 10:54:00,32.0,26.8,30.52,SE,127,9.2,9.2,81,0.00,CLR,,0.00,WeatherDisplay:10.37,2013-01-27 15:54:00,
2013-01-27 10:57:00,32.3,26.8,30.52,ESE,123,8.1,8.1,80,0.00,CLR,,0.00,WeatherDisplay:10.37,2013-01-27 15:57:00,
2013-01-27 10:59:00,32.6,27.1,30.52,East,98,8.1,8.1,80,0.00,CLR,,0.00,WeatherDisplay:10.37,2013-01-27 15:59:00,
2013-01-27 11:02:00,32.7,26.9,30.52,East,82,8.1,8.1,79,0.00,CLR,,0.00,WeatherDisplay:10.37,2013-01-27 16:02:00,
2013-01-27 11:05:00,32.6,26.8,30.51,East,96,10.4,10.4,79,0.00,CLR,,0.00,WeatherDisplay:10.37,2013-01-27 16:05:00,
2013-01-27 11:07:00,32.7,27.2,30.51,East,94,6.0,6.0,80,0.00,CLR,,0.00,WeatherDisplay:10.37,2013-01-27 16:07:00,
2013-01-27 11:08:00,32.8,27.3,30.51,ESE,108,7.0,7.0,80,0.00,CLR,,0.00,WeatherDisplay:10.37,2013-01-27 16:08:00,
2013-01-27 11:10:00,32.9,27.4,30.51,South,169,6.0,6.0,80,0.00,CLR,,0.00,WeatherDisplay:10.37,2013-01-27 16:10:00,
2013-01-27 11:12:00,33.1,27.6,30.51,East,87,8.1,8.1,80,0.00,CLR,,0.00,WeatherDisplay:10.37,2013-01-27 16:12:00,
2013-01-27 11:13:00,33.1,27.3,30.51,East,95,8.1,8.1,79,0.00,CLR,,0.00,WeatherDisplay:10.37,2013-01-27 16:13:00,
2013-01-27 11:15:00,33.2,27.1,30.51,South,190,9.2,9.2,78,0.00,CLR,,0.00,WeatherDisplay:10.37,2013-01-27 16:15:00,
2013-01-27 11:18:00,33.3,27.2,30.51,East,98,8.1,8.1,78,0.00,CLR,,0.00,WeatherDisplay:10.37,2013-01-27 16:18:00,
2013-01-27 11:19:00,33.3,27.5,30.51,East,99,10.0,10.0,79,0.00,CLR,,0.00,WeatherDisplay:10.37,2013-01-27 16:19:00,
2013-01-27 11:20:00,33.5,27.7,30.51,ENE,77,9.2,9.2,79,0.00,CLR,,0.00,WeatherDisplay:10.37,2013-01-27 16:20:00,
2013-01-27 11:23:00,33.7,27.9,30.51,East,98,6.9,6.9,79,0.00,CLR,,0.00,WeatherDisplay:10.37,2013-01-27 16:23:00,
2013-01-27 11:24:00,33.8,27.7,30.51,SE,129,6.9,6.9,78,0.00,CLR,,0.00,WeatherDisplay:10.37,2013-01-27 16:24:00,
2013-01-27 11:26:00,34.0,27.5,30.51,ESE,106,6.9,6.9,77,0.00,CLR,,0.00,WeatherDisplay:10.37,2013-01-27 16:26:00,
2013-01-27 11:29:00,34.3,28.2,30.50,East,82,8.1,8.1,78,0.00,CLR,,0.00,WeatherDisplay:10.37,2013-01-27 16:29:00,
2013-01-27 11:31:00,34.3,27.8,30.50,ESE,106,5.8,5.8,77,0.00,CLR,,0.00,WeatherDisplay:10.37,2013-01-27 16:31:00,
2013-01-27 11:34:00,34.2,27.7,30.50,ESE,106,10.4,10.4,77,0.00,CLR,,0.00,WeatherDisplay:10.37,2013-01-27 16:34:00,
2013-01-27 11:37:00,34.2,27.7,30.50,SSE,147,8.1,8.1,77,0.00,CLR,,0.00,WeatherDisplay:10.37,2013-01-27 16:37:00,
2013-01-27 11:39:00,34.4,27.9,30.51,ESE,113,6.9,6.9,77,0.00,CLR,,0.00,WeatherDisplay:10.37,2013-01-27 16:39:00,
2013-01-27 11:42:00,34.5,28.0,30.51,SE,127,4.6,4.6,77,0.00,CLR,,0.00,WeatherDisplay:10.37,2013-01-27 16:42:00,
2013-01-27 11:44:00,34.8,28.6,30.51,East,99,3.5,3.5,78,0.00,CLR,,0.00,WeatherDisplay:10.37,2013-01-27 16:44:00,
2013-01-27 11:45:00,34.9,28.7,30.51,NNE,33,3.5,3.5,78,0.00,CLR,,0.00,WeatherDisplay:10.37,2013-01-27 16:45:00,
2013-01-27 11:47:00,35.2,28.7,30.51,ENE,74,3.5,3.5,77,0.00,CLR,,0.00,WeatherDisplay:10.37,2013-01-27 16:47:00,
2013-01-27 11:49:00,35.5,28.7,30.51,SE,125,6.0,6.0,76,0.00,CLR,,0.00,WeatherDisplay:10.37,2013-01-27 16:49:00,
2013-01-27 11:50:00,35.5,28.7,30.50,SSE,153,5.8,5.8,76,0.00,CLR,,0.00,WeatherDisplay:10.37,2013-01-27 16:50:00,
2013-01-27 11:52:00,35.5,28.4,30.50,ESE,105,6.9,6.9,75,0.00,CLR,,0.00,WeatherDisplay:10.37,2013-01-27 16:52:00,
2013-01-27 11:54:00,35.5,28.7,30.50,ENE,66,5.8,5.8,76,0.00,CLR,,0.00,WeatherDisplay:10.37,2013-01-27 16:54:00,
2013-01-27 11:56:00,35.6,28.8,30.50,ENE,76,5.8,5.8,76,0.00,CLR,,0.00,WeatherDisplay:10.37,2013-01-27 16:56:00,
2013-01-27 11:57:00,35.7,28.9,30.50,ESE,102,5.8,5.8,76,0.00,CLR,,0.00,WeatherDisplay:10.37,2013-01-27 16:57:00,
2013-01-27 11:59:00,35.8,28.6,30.51,ESE,120,5.8,5.8,75,0.00,CLR,,0.00,WeatherDisplay:10.37,2013-01-27 16:59:00,
2013-01-27 12:00:00,35.8,28.6,30.51,East,101,3.0,7.0,75,0.00,CLR,,0.00,WeatherDisplay:10.37,2013-01-27 17:00:00,
2013-01-27 12:01:00,36.0,29.5,30.51,SE,137,3.5,3.5,77,0.00,CLR,,0.00,WeatherDisplay:10.37,2013-01-27 17:01:00,
2013-01-27 12:02:00,36.2,29.7,30.51,East,91,6.9,6.9,77,0.00,CLR,,0.00,WeatherDisplay:10.37,2013-01-27 17:02:00,
2013-01-27 12:04:00,36.3,29.1,30.51,ENE,74,5.8,5.8,75,0.00,CLR,,0.00,WeatherDisplay:10.37,2013-01-27 17:04:00,
2013-01-27 12:05:00,36.3,28.8,30.51,ESE,105,3.0,7.0,74,0.00,CLR,,0.00,WeatherDisplay:10.37,2013-01-27 17:05:00,
2013-01-27 12:06:00,36.4,29.2,30.51,East,94,3.5,3.5,75,0.00,CLR,,0.00,WeatherDisplay:10.37,2013-01-27 17:06:00,
2013-01-27 12:07:00,36.6,29.4,30.50,SE,141,6.9,6.9,75,0.00,CLR,,0.00,WeatherDisplay:10.37,2013-01-27 17:07:00,
2013-01-27 12:10:00,36.8,29.6,30.50,East,94,7.0,7.0,75,0.00,CLR,,0.00,WeatherDisplay:10.37,2013-01-27 17:10:00,
2013-01-27 12:11:00,36.8,29.6,30.50,SE,143,5.8,5.8,75,0.00,CLR,,0.00,WeatherDisplay:10.37,2013-01-27 17:11:00,
2013-01-27 12:13:00,36.8,29.3,30.50,ESE,106,4.6,4.6,74,0.00,CLR,,0.00,WeatherDisplay:10.37,2013-01-27 17:13:00,
2013-01-27 12:15:00,36.8,28.6,30.50,East,96,6.9,6.9,72,0.00,CLR,,0.00,WeatherDisplay:10.37,2013-01-27 17:15:00,
2013-01-27 12:16:00,36.7,29.2,30.50,ESE,118,5.8,5.8,74,0.00,CLR,,0.00,WeatherDisplay:10.37,2013-01-27 17:16:00,
2013-01-27 12:18:00,36.9,29.4,30.50,ESE,115,4.6,4.6,74,0.00,CLR,,0.00,WeatherDisplay:10.37,2013-01-27 17:18:00,
2013-01-27 12:20:00,36.9,29.1,30.49,ENE,77,5.8,5.8,73,0.00,CLR,,0.00,WeatherDisplay:10.37,2013-01-27 17:20:00,
2013-01-27 12:22:00,37.1,29.9,30.49,SE,142,5.8,5.8,75,0.00,CLR,,0.00,WeatherDisplay:10.37,2013-01-27 17:22:00,
2013-01-27 12:23:00,37.2,29.7,30.49,ESE,108,8.1,8.1,74,0.00,CLR,,0.00,WeatherDisplay:10.37,2013-01-27 17:23:00,
2013-01-27 12:25:00,37.3,29.8,30.49,East,88,5.0,5.0,74,0.00,CLR,,0.00,WeatherDisplay:10.37,2013-01-27 17:25:00,
2013-01-27 12:27:00,37.3,29.4,30.49,East,101,5.8,5.8,73,0.00,CLR,,0.00,WeatherDisplay:10.37,2013-01-27 17:27:00,
2013-01-27 12:28:00,37.5,30.0,30.49,East,96,6.9,6.9,74,0.00,CLR,,0.00,WeatherDisplay:10.37,2013-01-27 17:28:00,
2013-01-27 12:30:00,37.5,29.3,30.49,NE,46,5.8,5.8,72,0.00,CLR,,0.00,WeatherDisplay:10.37,2013-01-27 17:30:00,
2013-01-27 12:31:00,37.5,29.3,30.49,East,86,5.8,5.8,72,0.00,CLR,,0.00,WeatherDisplay:10.37,2013-01-27 17:31:00,
2013-01-27 12:32:00,37.7,30.2,30.49,ENE,76,4.6,4.6,74,0.00,CLR,,0.00,WeatherDisplay:10.37,2013-01-27 17:32:00,
2013-01-27 12:33:00,37.8,29.9,30.49,ENE,76,4.6,4.6,73,0.00,CLR,,0.00,WeatherDisplay:10.37,2013-01-27 17:33:00,
2013-01-27 12:35:00,37.9,29.7,30.48,East,95,5.0,5.0,72,0.00,CLR,,0.00,WeatherDisplay:10.37,2013-01-27 17:35:00,
2013-01-27 12:36:00,37.9,29.7,30.49,East,91,7.0,7.0,72,0.00,CLR,,0.00,WeatherDisplay:10.37,2013-01-27 17:36:00,
2013-01-27 12:37:00,37.8,28.9,30.48,ESE,118,6.9,6.9,70,0.00,CLR,,0.00,WeatherDisplay:10.37,2013-01-27 17:37:00,
2013-01-27 12:39:00,37.7,29.1,30.48,East,84,6.9,6.9,71,0.00,CLR,,0.00,WeatherDisplay:10.37,2013-01-27 17:39:00,
2013-01-27 12:41:00,37.9,30.7,30.48,South,172,5.0,5.0,75,0.00,CLR,,0.00,WeatherDisplay:10.37,2013-01-27 17:41:00,
2013-01-27 12:43:00,38.2,31.0,30.48,South,190,4.6,4.6,75,0.00,CLR,,0.00,WeatherDisplay:10.37,2013-01-27 17:43:00,
2013-01-27 12:44:00,38.3,30.7,30.48,SSE,149,7.0,7.0,74,0.00,CLR,,0.00,WeatherDisplay:10.37,2013-01-27 17:44:00,
2013-01-27 12:46:00,38.3,29.7,30.48,ESE,114,6.9,6.9,71,0.00,CLR,,0.00,WeatherDisplay:10.37,2013-01-27 17:46:00,
2013-01-27 12:47:00,38.3,29.7,30.48,ESE,106,6.9,6.9,71,0.00,CLR,,0.00,WeatherDisplay:10.37,2013-01-27 17:47:00,
2013-01-27 12:48:00,38.4,30.2,30.48,SE,136,4.0,4.0,72,0.00,CLR,,0.00,WeatherDisplay:10.37,2013-01-27 17:48:00,
2013-01-27 12:49:00,38.5,30.6,30.48,SE,124,3.5,3.5,73,0.00,CLR,,0.00,WeatherDisplay:10.37,2013-01-27 17:49:00,
2013-01-27 12:51:00,38.5,30.3,30.48,ESE,119,5.8,5.8,72,0.00,CLR,,0.00,WeatherDisplay:10.37,2013-01-27 17:51:00,
2013-01-27 12:52:00,38.5,30.3,30.48,SE,133,4.6,4.6,72,0.00,CLR,,0.00,WeatherDisplay:10.37,2013-01-27 17:52:00,
2013-01-27 12:53:00,38.7,30.8,30.48,East,82,6.9,6.9,73,0.00,CLR,,0.00,WeatherDisplay:10.37,2013-01-27 17:53:00,
2013-01-27 12:54:00,38.7,30.1,30.48,East,81,4.6,4.6,71,0.00,CLR,,0.00,WeatherDisplay:10.37,2013-01-27 17:54:00,
2013-01-27 12:57:00,38.9,30.6,30.48,ENE,77,4.6,4.6,72,0.00,CLR,,0.00,WeatherDisplay:10.37,2013-01-27 17:57:00,
2013-01-27 12:59:00,39.1,31.2,30.48,East,94,4.6,4.6,73,0.00,CLR,,0.00,WeatherDisplay:10.37,2013-01-27 17:59:00,
2013-01-27 13:00:00,39.2,31.3,30.48,East,85,4.6,4.6,73,0.00,CLR,,0.00,WeatherDisplay:10.37,2013-01-27 18:00:00,
2013-01-27 13:02:00,39.2,30.2,30.48,ESE,106,5.8,5.8,70,0.00,CLR,,0.00,WeatherDisplay:10.37,2013-01-27 18:02:00,
2013-01-27 13:03:00,39.1,30.1,30.48,ENE,77,5.8,5.8,70,0.00,CLR,,0.00,WeatherDisplay:10.37,2013-01-27 18:03:00,
2013-01-27 13:04:00,39.1,30.1,30.48,ESE,112,5.8,5.8,70,0.00,CLR,,0.00,WeatherDisplay:10.37,2013-01-27 18:04:00,
2013-01-27 13:05:00,39.1,30.1,30.47,SE,144,3.5,3.5,70,0.00,CLR,,0.00,WeatherDisplay:10.37,2013-01-27 18:05:00,
2013-01-27 13:07:00,39.1,29.8,30.48,ESE,102,8.1,8.1,69,0.00,CLR,,0.00,WeatherDisplay:10.37,2013-01-27 18:07:00,
2013-01-27 13:08:00,39.1,30.1,30.47,East,89,8.1,8.1,70,0.00,CLR,,0.01,WeatherDisplay:10.37,2013-01-27 18:08:00,
2013-01-27 13:10:00,39.1,30.1,30.47,SE,130,3.5,3.5,70,0.01,RA,,0.01,WeatherDisplay:10.37,2013-01-27 18:10:00,
2013-01-27 13:13:00,39.3,31.0,30.47,SE,139,4.6,4.6,72,0.01,RA,,0.01,WeatherDisplay:10.37,2013-01-27 18:13:00,
2013-01-27 13:15:00,39.6,31.0,30.47,SE,124,5.8,5.8,71,0.01,RA,,0.01,WeatherDisplay:10.37,2013-01-27 18:15:00,
2013-01-27 13:16:00,39.6,31.0,30.47,ESE,115,5.8,5.8,71,0.01,RA,,0.01,WeatherDisplay:10.37,2013-01-27 18:16:00,
2013-01-27 13:18:00,39.8,31.2,30.46,East,99,4.6,4.6,71,0.01,CLR,,0.01,WeatherDisplay:10.37,2013-01-27 18:18:00,
2013-01-27 13:20:00,39.9,30.9,30.46,ENE,78,8.1,8.1,70,0.02,RA,,0.02,WeatherDisplay:10.37,2013-01-27 18:20:00,
2013-01-27 13:21:00,39.9,30.5,30.46,NNE,22,5.8,5.8,69,0.02,RA,,0.02,WeatherDisplay:10.37,2013-01-27 18:21:00,
2013-01-27 13:23:00,40.1,31.1,30.46,SE,127,7.0,7.0,70,0.02,RA,,0.02,WeatherDisplay:10.37,2013-01-27 18:23:00,
2013-01-27 13:25:00,40.1,31.1,30.46,SSE,147,4.6,4.6,70,0.02,RA,,0.02,WeatherDisplay:10.37,2013-01-27 18:25:00,
2013-01-27 13:26:00,40.2,31.2,30.46,SE,127,3.5,3.5,70,0.02,RA,,0.02,WeatherDisplay:10.37,2013-01-27 18:26:00,
2013-01-27 13:28:00,40.4,31.7,30.46,SE,126,4.6,4.6,71,0.02,RA,,0.02,WeatherDisplay:10.37,2013-01-27 18:28:00,
2013-01-27 13:29:00,40.4,31.7,30.46,East,80,5.0,5.0,71,0.02,RA,,0.02,WeatherDisplay:10.37,2013-01-27 18:29:00,
2013-01-27 13:31:00,40.6,31.2,30.46,East,98,4.6,4.6,69,0.02,CLR,,0.02,WeatherDisplay:10.37,2013-01-27 18:31:00,
2013-01-27 13:34:00,40.8,31.4,30.46,SE,135,4.6,4.6,69,0.02,CLR,,0.02,WeatherDisplay:10.37,2013-01-27 18:34:00,
2013-01-27 13:36:00,41.1,32.1,30.46,ESE,113,3.5,3.5,70,0.03,RA,,0.03,WeatherDisplay:10.37,2013-01-27 18:36:00,
2013-01-27 13:39:00,41.4,32.0,30.46,ESE,119,4.6,4.6,69,0.03,RA,,0.03,WeatherDisplay:10.37,2013-01-27 18:39:00,
2013-01-27 13:41:00,41.5,31.0,30.46,East,88,5.8,5.8,66,0.03,RA,,0.03,WeatherDisplay:10.37,2013-01-27 18:41:00,
2013-01-27 13:44:00,41.4,32.0,30.46,ESE,106,2.3,2.3,69,0.03,RA,,0.03,WeatherDisplay:10.37,2013-01-27 18:44:00,
2013-01-27 13:46:00,41.6,30.7,30.46,SE,140,3.5,3.5,65,0.03,CLR,,0.03,WeatherDisplay:10.37,2013-01-27 18:46:00,
2013-01-27 13:47:00,41.6,31.4,30.46,ENE,78,3.5,3.5,67,0.03,,,0.03,WeatherDisplay:10.37,2013-01-27 18:47:00,
2013-01-27 13:49:00,41.7,31.5,30.45,SE,141,5.8,5.8,67,0.03,,,0.03,WeatherDisplay:10.37,2013-01-27 18:49:00,
2013-01-27 13:50:00,41.7,31.5,30.45,SE,134,5.8,5.8,67,0.03,,,0.03,WeatherDisplay:10.37,2013-01-27 18:50:00,
2013-01-27 13:52:00,41.7,31.5,30.45,SSE,155,6.9,6.9,67,0.03,,,0.03,WeatherDisplay:10.37,2013-01-27 18:52:00,
2013-01-27 13:54:00,41.8,32.0,30.46,East,92,4.6,4.6,68,0.03,,,0.03,WeatherDisplay:10.37,2013-01-27 18:54:00,
2013-01-27 13:55:00,41.8,30.9,30.46,SE,135,4.6,4.6,65,0.03,,,0.03,WeatherDisplay:10.37,2013-01-27 18:55:00,
2013-01-27 13:57:00,41.9,31.7,30.45,SE,129,4.0,4.0,67,0.03,,,0.03,WeatherDisplay:10.37,2013-01-27 18:57:00,
2013-01-27 13:58:00,42.0,31.5,30.45,SE,146,4.6,4.6,66,0.03,,,0.03,WeatherDisplay:10.37,2013-01-27 18:58:00,
2013-01-27 13:59:00,42.1,31.6,30.45,ESE,123,4.0,4.0,66,0.03,,,0.03,WeatherDisplay:10.37,2013-01-27 18:59:00,
2013-01-27 14:00:00,42.1,30.8,30.45,SE,137,3.5,3.5,64,0.03,,,0.03,WeatherDisplay:10.37,2013-01-27 19:00:00,
2013-01-27 14:03:00,42.3,31.4,30.45,ESE,105,3.5,3.5,65,0.04,RA,,0.04,WeatherDisplay:10.37,2013-01-27 19:03:00,
2013-01-27 14:04:00,42.3,31.4,30.45,SE,133,2.3,2.3,65,0.04,RA,,0.04,WeatherDisplay:10.37,2013-01-27 19:04:00,
2013-01-27 14:05:00,42.4,31.5,30.45,SE,137,3.0,3.0,65,0.04,RA,,0.04,WeatherDisplay:10.37,2013-01-27 19:05:00,
2013-01-27 14:08:00,42.4,31.1,30.45,ENE,78,4.0,4.0,64,0.03,RA,,0.04,WeatherDisplay:10.37,2013-01-27 19:08:00,
2013-01-27 14:10:00,42.4,31.5,30.45,ENE,71,3.5,3.5,65,0.03,RA,,0.04,WeatherDisplay:10.37,2013-01-27 19:10:00,
2013-01-27 14:13:00,42.7,31.7,30.45,SSE,147,4.6,4.6,65,0.03,,,0.04,WeatherDisplay:10.37,2013-01-27 19:13:00,
2013-01-27 14:15:00,42.7,31.0,30.45,East,93,1.0,5.0,63,0.00,,,0.04,WeatherDisplay:10.37,2013-01-27 19:15:00,
2013-01-27 14:18:00,42.7,31.7,30.45,East,85,5.0,5.0,65,0.03,,,0.04,WeatherDisplay:10.37,2013-01-27 19:18:00,
2013-01-27 14:20:00,42.5,31.2,30.45,ENE,64,3.5,3.5,64,0.02,,,0.04,WeatherDisplay:10.37,2013-01-27 19:20:00,
2013-01-27 14:23:00,42.5,31.6,30.45,East,92,2.3,2.3,65,0.02,,,0.04,WeatherDisplay:10.37,2013-01-27 19:23:00,
2013-01-27 14:25:00,42.4,31.5,30.45,NE,51,3.5,3.5,65,0.02,,,0.04,WeatherDisplay:10.37,2013-01-27 19:25:00,
2013-01-27 14:28:00,42.4,31.5,30.46,East,87,3.5,3.5,65,0.02,,,0.04,WeatherDisplay:10.37,2013-01-27 19:28:00,
2013-01-27 14:30:00,42.4,31.1,30.45,East,101,2.3,2.3,64,0.02,,,0.04,WeatherDisplay:10.37,2013-01-27 19:30:00,
2013-01-27 14:33:00,42.3,31.7,30.46,ENE,70,3.5,3.5,66,0.02,,,0.04,WeatherDisplay:10.37,2013-01-27 19:33:00,
2013-01-27 14:34:00,42.3,31.4,30.46,ENE,75,3.5,3.5,65,0.02,,,0.04,WeatherDisplay:10.37,2013-01-27 19:34:00,
2013-01-27 14:35:00,42.2,30.9,30.46,East,89,3.0,3.0,64,0.01,,,0.04,WeatherDisplay:10.37,2013-01-27 19:35:00,
2013-01-27 14:36:00,42.2,30.9,30.46,East,88,3.5,3.5,64,0.01,,,0.04,WeatherDisplay:10.37,2013-01-27 19:36:00,
2013-01-27 14:38:00,42.1,31.6,30.46,East,94,2.3,2.3,66,0.01,,,0.04,WeatherDisplay:10.37,2013-01-27 19:38:00,
2013-01-27 14:39:00,42.1,31.2,30.45,East,82,2.3,2.3,65,0.01,,,0.04,WeatherDisplay:10.37,2013-01-27 19:39:00,
2013-01-27 14:40:00,42.1,31.6,30.46,ESE,112,1.1,1.1,66,0.01,,,0.04,WeatherDisplay:10.37,2013-01-27 19:40:00,
2013-01-27 14:41:00,42.1,31.2,30.46,ESE,102,2.3,2.3,65,0.01,,,0.04,WeatherDisplay:10.37,2013-01-27 19:41:00,
2013-01-27 14:44:00,42.1,31.2,30.45,South,177,2.3,2.3,65,0.01,,,0.05,WeatherDisplay:10.37,2013-01-27 19:44:00,
2013-01-27 14:45:00,42.1,30.8,30.45,South,175,2.3,2.3,64,0.02,RA,,0.05,WeatherDisplay:10.37,2013-01-27 19:45:00,
2013-01-27 14:46:00,42.1,31.2,30.46,East,94,3.0,3.0,65,0.02,RA,,0.05,WeatherDisplay:10.37,2013-01-27 19:46:00,
2013-01-27 14:49:00,42.1,31.6,30.46,NE,50,3.5,3.5,66,0.02,RA,,0.05,WeatherDisplay:10.37,2013-01-27 19:49:00,
2013-01-27 14:50:00,42.2,31.6,30.46,NE,46,2.3,2.3,66,0.02,RA,,0.05,WeatherDisplay:10.37,2013-01-27 19:50:00,
2013-01-27 14:51:00,42.2,31.6,30.46,NE,46,2.3,2.3,66,0.02,RA,,0.05,WeatherDisplay:10.37,2013-01-27 19:51:00,
2013-01-27 14:54:00,42.2,31.6,30.46,East,99,3.5,3.5,66,0.02,,,0.05,WeatherDisplay:10.37,2013-01-27 19:54:00,
2013-01-27 14:56:00,42.2,31.3,30.46,NE,36,2.3,2.3,65,0.02,,,0.05,WeatherDisplay:10.37,2013-01-27 19:56:00,
2013-01-27 14:59:00,42.1,31.6,30.46,East,80,2.3,2.3,66,0.02,,,0.05,WeatherDisplay:10.37,2013-01-27 19:59:00,
2013-01-27 15:01:00,42.1,31.2,30.46,NE,51,3.5,3.5,65,0.02,,,0.05,WeatherDisplay:10.37,2013-01-27 20:01:00,
2013-01-27 15:02:00,42.1,31.2,30.45,ENE,61,2.3,2.3,65,0.01,,,0.05,WeatherDisplay:10.37,2013-01-27 20:02:00,
2013-01-27 15:04:00,42.0,31.1,30.45,NNE,30,3.5,3.5,65,0.01,,,0.05,WeatherDisplay:10.37,2013-01-27 20:04:00,
2013-01-27 15:06:00,41.9,31.0,30.46,NNE,30,1.1,1.1,65,0.01,,,0.05,WeatherDisplay:10.37,2013-01-27 20:06:00,
2013-01-27 15:07:00,41.9,31.4,30.46,North,9,2.3,2.3,66,0.01,,,0.05,WeatherDisplay:10.37,2013-01-27 20:07:00,
2013-01-27 15:09:00,41.8,31.3,30.46,ESE,108,3.5,3.5,66,0.01,,,0.05,WeatherDisplay:10.37,2013-01-27 20:09:00,
2013-01-27 15:11:00,41.8,30.9,30.45,East,99,3.5,3.5,65,0.01,,,0.05,WeatherDisplay:10.37,2013-01-27 20:11:00,
2013-01-27 15:12:00,41.7,30.4,30.46,East,99,2.3,2.3,64,0.01,,,0.05,WeatherDisplay:10.37,2013-01-27 20:12:00,
2013-01-27 15:14:00,41.7,30.8,30.45,ESE,115,3.5,3.5,65,0.01,,,0.05,WeatherDisplay:10.37,2013-01-27 20:14:00,
2013-01-27 15:16:00,41.6,31.1,30.46,NNE,25,2.3,2.3,66,0.01,,,0.05,WeatherDisplay:10.37,2013-01-27 20:16:00,
2013-01-27 15:17:00,41.6,31.1,30.46,NNE,33,2.3,2.3,66,0.01,,,0.05,WeatherDisplay:10.37,2013-01-27 20:17:00,
2013-01-27 15:19:00,41.7,31.2,30.45,East,94,2.0,2.0,66,0.01,,,0.05,WeatherDisplay:10.37,2013-01-27 20:19:00,
2013-01-27 15:21:00,41.7,31.2,30.45,East,101,3.5,3.5,66,0.01,,,0.05,WeatherDisplay:10.37,2013-01-27 20:21:00,
2013-01-27 15:22:00,41.6,31.1,30.45,East,91,3.5,3.5,66,0.01,,,0.05,WeatherDisplay:10.37,2013-01-27 20:22:00,
2013-01-27 15:25:00,41.6,31.1,30.46,ENE,74,3.5,3.5,66,0.01,,,0.05,WeatherDisplay:10.37,2013-01-27 20:25:00,
2013-01-27 15:27:00,41.7,31.5,30.46,ENE,73,2.3,2.3,67,0.01,,,0.05,WeatherDisplay:10.37,2013-01-27 20:27:00,
2013-01-27 15:30:00,41.6,31.1,30.45,ESE,103,3.0,3.0,66,0.01,,,0.05,WeatherDisplay:10.37,2013-01-27 20:30:00,
2013-01-27 15:32:00,41.6,31.1,30.45,East,94,2.3,2.3,66,0.01,,,0.05,WeatherDisplay:10.37,2013-01-27 20:32:00,
2013-01-27 15:35:00,41.5,30.6,30.46,East,85,3.5,3.5,65,0.01,,,0.05,WeatherDisplay:10.37,2013-01-27 20:35:00,
2013-01-27 15:37:00,41.5,30.6,30.46,East,91,3.5,3.5,65,0.01,,,0.05,WeatherDisplay:10.37,2013-01-27 20:37:00,
2013-01-27 15:40:00,41.5,31.0,30.46,ESE,123,2.3,2.3,66,0.01,,,0.05,WeatherDisplay:10.37,2013-01-27 20:40:00,
2013-01-27 15:42:00,41.5,31.4,30.46,SE,129,1.1,1.1,67,0.01,,,0.05,WeatherDisplay:10.37,2013-01-27 20:42:00,
2013-01-27 15:45:00,41.5,30.6,30.46,ESE,109,3.5,3.5,65,0.00,,,0.05,WeatherDisplay:10.37,2013-01-27 20:45:00,
2013-01-27 15:47:00,41.5,30.6,30.46,East,94,2.3,2.3,65,0.00,,,0.05,WeatherDisplay:10.37,2013-01-27 20:47:00,
2013-01-27 15:48:00,41.5,30.6,30.46,East,101,2.3,2.3,65,0.00,,,0.05,WeatherDisplay:10.37,2013-01-27 20:48:00,
2013-01-27 15:49:00,41.5,30.6,30.46,East,101,3.5,3.5,65,0.00,,,0.05,WeatherDisplay:10.37,2013-01-27 20:49:00,
2013-01-27 15:51:00,41.5,30.6,30.46,ENE,63,2.3,2.3,65,0.01,RA,,0.06,WeatherDisplay:10.37,2013-01-27 20:51:00,
2013-01-27 15:53:00,41.4,30.5,30.46,East,91,3.5,3.5,65,0.01,RA,,0.06,WeatherDisplay:10.37,2013-01-27 20:53:00,
2013-01-27 15:54:00,41.4,30.9,30.46,East,89,2.3,2.3,66,0.01,RA,,0.06,WeatherDisplay:10.37,2013-01-27 20:54:00,
2013-01-27 15:56:00,41.4,30.9,30.46,ENE,77,3.5,3.5,66,0.01,RA,,0.06,WeatherDisplay:10.37,2013-01-27 20:56:00,
2013-01-27 15:58:00,41.4,30.5,30.46,East,98,3.5,3.5,65,0.01,RA,,0.06,WeatherDisplay:10.37,2013-01-27 20:58:00,
2013-01-27 15:59:00,41.4,30.5,30.46,East,84,4.0,4.0,65,0.01,RA,,0.06,WeatherDisplay:10.37,2013-01-27 20:59:00,
2013-01-27 16:02:00,41.4,30.5,30.46,East,89,3.5,3.5,65,0.01,,,0.06,WeatherDisplay:10.37,2013-01-27 21:02:00,
2013-01-27 16:03:00,41.4,30.9,30.46,East,86,3.5,3.5,66,0.01,,,0.06,WeatherDisplay:10.37,2013-01-27 21:03:00,
2013-01-27 16:04:00,41.4,30.9,30.46,East,85,3.5,3.5,66,0.01,,,0.06,WeatherDisplay:10.37,2013-01-27 21:04:00,
2013-01-27 16:07:00,41.4,30.9,30.45,East,96,3.5,3.5,66,0.01,,,0.06,WeatherDisplay:10.37,2013-01-27 21:07:00,
2013-01-27 16:08:00,41.4,30.5,30.46,East,85,3.5,3.5,65,0.01,,,0.06,WeatherDisplay:10.37,2013-01-27 21:08:00,
2013-01-27 16:10:00,41.4,30.5,30.46,East,99,4.0,4.0,65,0.01,,,0.06,WeatherDisplay:10.37,2013-01-27 21:10:00,
2013-01-27 16:12:00,41.3,30.0,30.46,East,87,4.6,4.6,64,0.01,,,0.06,WeatherDisplay:10.37,2013-01-27 21:12:00,
2013-01-27 16:13:00,41.3,30.4,30.46,East,98,3.5,3.5,65,0.01,,,0.06,WeatherDisplay:10.37,2013-01-27 21:13:00,
2013-01-27 16:15:00,41.3,30.4,30.46,East,82,3.5,3.5,65,0.01,,,0.06,WeatherDisplay:10.37,2013-01-27 21:15:00,
2013-01-27 16:17:00,41.4,30.5,30.46,SE,136,2.3,2.3,65,0.01,,,0.06,WeatherDisplay:10.37,2013-01-27 21:17:00,
2013-01-27 16:18:00,41.3,30.4,30.46,ESE,115,3.0,3.0,65,0.01,,,0.06,WeatherDisplay:10.37,2013-01-27 21:18:00,
2013-01-27 16:19:00,41.4,30.1,30.46,SE,124,3.5,3.5,64,0.01,,,0.06,WeatherDisplay:10.37,2013-01-27 21:19:00,
2013-01-27 16:20:00,41.4,30.1,30.46,East,99,2.3,2.3,64,0.01,,,0.06,WeatherDisplay:10.37,2013-01-27 21:20:00,
2013-01-27 16:23:00,41.4,30.5,30.46,East,91,2.0,2.0,65,0.01,,,0.06,WeatherDisplay:10.37,2013-01-27 21:23:00,
2013-01-27 16:24:00,41.4,30.5,30.46,East,83,3.5,3.5,65,0.01,,,0.06,WeatherDisplay:10.37,2013-01-27 21:24:00,
2013-01-27 16:25:00,41.4,30.1,30.46,ESE,110,3.5,3.5,64,0.01,,,0.06,WeatherDisplay:10.37,2013-01-27 21:25:00,
2013-01-27 16:28:00,41.3,30.0,30.45,ESE,116,3.5,3.5,64,0.01,,,0.06,WeatherDisplay:10.37,2013-01-27 21:28:00,
2013-01-27 16:29:00,41.3,30.4,30.45,East,93,3.5,3.5,65,0.01,,,0.06,WeatherDisplay:10.37,2013-01-27 21:29:00,
2013-01-27 16:30:00,41.2,30.3,30.45,East,91,4.0,4.0,65,0.01,,,0.06,WeatherDisplay:10.37,2013-01-27 21:30:00,
2013-01-27 16:33:00,41.2,29.2,30.46,SE,134,3.5,3.5,62,0.01,,,0.06,WeatherDisplay:10.37,2013-01-27 21:33:00,
2013-01-27 16:34:00,41.2,29.2,30.45,East,84,3.5,3.5,62,0.01,,,0.06,WeatherDisplay:10.37,2013-01-27 21:34:00,
2013-01-27 16:35:00,41.1,29.1,30.45,SE,129,3.5,3.5,62,0.01,,,0.06,WeatherDisplay:10.37,2013-01-27 21:35:00,
2013-01-27 16:38:00,41.1,29.1,30.45,SSE,154,3.5,3.5,62,0.01,,,0.06,WeatherDisplay:10.37,2013-01-27 21:38:00,
2013-01-27 16:39:00,41.1,29.1,30.45,East,81,3.5,3.5,62,0.01,,,0.06,WeatherDisplay:10.37,2013-01-27 21:39:00,
2013-01-27 16:40:00,41.1,29.1,30.45,East,88,4.0,4.0,62,0.01,,,0.06,WeatherDisplay:10.37,2013-01-27 21:40:00,
2013-01-27 16:41:00,41.1,29.1,30.45,East,88,4.6,4.6,62,0.01,,,0.06,WeatherDisplay:10.37,2013-01-27 21:41:00,
2013-01-27 16:44:00,41.1,29.1,30.46,SE,141,3.5,3.5,62,0.01,,,0.06,WeatherDisplay:10.37,2013-01-27 21:44:00,
2013-01-27 16:45:00,41.0,29.0,30.46,East,91,3.5,3.5,62,0.01,,,0.06,WeatherDisplay:10.37,2013-01-27 21:45:00,
2013-01-27 16:46:00,41.0,29.0,30.46,ENE,70,4.6,4.6,62,0.01,,,0.06,WeatherDisplay:10.37,2013-01-27 21:46:00,
2013-01-27 16:49:00,41.0,29.0,30.46,East,91,2.3,2.3,62,0.01,,,0.06,WeatherDisplay:10.37,2013-01-27 21:49:00,
2013-01-27 16:50:00,41.0,29.0,30.46,ESE,106,2.3,2.3,62,0.01,,,0.06,WeatherDisplay:10.37,2013-01-27 21:50:00,
2013-01-27 16:52:00,41.0,29.0,30.46,East,91,3.5,3.5,62,0.00,,,0.06,WeatherDisplay:10.37,2013-01-27 21:52:00,
2013-01-27 16:54:00,40.9,28.9,30.46,East,89,3.5,3.5,62,0.00,,,0.06,WeatherDisplay:10.37,2013-01-27 21:54:00,
2013-01-27 16:55:00,40.9,29.3,30.46,East,89,3.5,3.5,63,0.00,,,0.06,WeatherDisplay:10.37,2013-01-27 21:55:00,
2013-01-27 16:57:00,40.9,29.3,30.46,East,85,3.5,3.5,63,0.00,,,0.06,WeatherDisplay:10.37,2013-01-27 21:57:00,
2013-01-27 16:59:00,40.9,29.3,30.46,ENE,60,3.5,3.5,63,0.00,,,0.06,WeatherDisplay:10.37,2013-01-27 21:59:00,
2013-01-27 17:00:00,40.9,29.3,30.46,East,81,5.8,5.8,63,0.00,,,0.06,WeatherDisplay:10.37,2013-01-27 22:00:00,
2013-01-27 17:02:00,40.9,29.3,30.46,ENE,77,4.6,4.6,63,0.00,,,0.06,WeatherDisplay:10.37,2013-01-27 22:02:00,
2013-01-27 17:05:00,40.8,29.6,30.46,ESE,103,3.5,3.5,64,0.00,,,0.06,WeatherDisplay:10.37,2013-01-27 22:05:00,
2013-01-27 17:07:00,40.7,29.8,30.46,ESE,108,2.3,2.3,65,0.00,,,0.06,WeatherDisplay:10.37,2013-01-27 22:07:00,
2013-01-27 17:10:00,40.7,29.8,30.46,ESE,112,3.5,3.5,65,0.00,,,0.06,WeatherDisplay:10.37,2013-01-27 22:10:00,
2013-01-27 17:12:00,40.6,30.1,30.46,East,99,1.1,1.1,66,0.00,,,0.06,WeatherDisplay:10.37,2013-01-27 22:12:00,
2013-01-27 17:15:00,40.5,30.4,30.45,SE,144,2.3,2.3,67,0.00,,,0.06,WeatherDisplay:10.37,2013-01-27 22:15:00,
2013-01-27 17:16:00,40.4,30.3,30.46,SE,132,4.6,4.6,67,0.00,,,0.06,WeatherDisplay:10.37,2013-01-27 22:16:00,
2013-01-27 17:17:00,40.3,29.8,30.46,East,86,3.5,3.5,66,0.00,,,0.06,WeatherDisplay:10.37,2013-01-27 22:17:00,
2013-01-27 17:20:00,40.2,29.7,30.46,ESE,106,3.5,3.5,66,0.00,,,0.06,WeatherDisplay:10.37,2013-01-27 22:20:00,
2013-01-27 17:21:00,40.1,29.6,30.46,East,89,3.5,3.5,66,0.00,,,0.06,WeatherDisplay:10.37,2013-01-27 22:21:00,
2013-01-27 17:22:00,40.1,29.3,30.46,East,95,3.5,3.5,65,0.00,,,0.06,WeatherDisplay:10.37,2013-01-27 22:22:00,
2013-01-27 17:26:00,39.9,29.5,30.46,East,85,3.5,3.5,66,0.00,,,0.06,WeatherDisplay:10.37,2013-01-27 22:26:00,
2013-01-27 17:27:00,39.9,29.8,30.45,East,88,3.5,3.5,67,0.00,,,0.06,WeatherDisplay:10.37,2013-01-27 22:27:00,
2013-01-27 17:31:00,39.7,29.6,30.45,ESE,103,4.0,4.0,67,0.00,,,0.06,WeatherDisplay:10.37,2013-01-27 22:31:00,
2013-01-27 17:32:00,39.6,29.2,30.45,East,84,4.6,4.6,66,0.00,,,0.06,WeatherDisplay:10.37,2013-01-27 22:32:00,
2013-01-27 17:36:00,39.5,29.4,30.45,East,79,4.0,4.0,67,0.00,,,0.06,WeatherDisplay:10.37,2013-01-27 22:36:00,
2013-01-27 17:37:00,39.5,29.4,30.45,East,94,3.5,3.5,67,0.00,,,0.06,WeatherDisplay:10.37,2013-01-27 22:37:00,
2013-01-27 17:38:00,39.5,29.4,30.45,East,86,3.5,3.5,67,0.00,,,0.06,WeatherDisplay:10.37,2013-01-27 22:38:00,
2013-01-27 17:42:00,39.3,29.6,30.45,East,96,3.5,3.5,68,0.00,,,0.06,WeatherDisplay:10.37,2013-01-27 22:42:00,
2013-01-27 17:43:00,39.2,29.5,30.45,East,88,2.3,2.3,68,0.00,,,0.06,WeatherDisplay:10.37,2013-01-27 22:43:00,
2013-01-27 17:47:00,39.1,29.8,30.46,ESE,118,1.1,1.1,69,0.00,,,0.06,WeatherDisplay:10.37,2013-01-27 22:47:00,
2013-01-27 17:48:00,39.1,29.8,30.46,ESE,118,1.1,0.0,69,0.00,,,0.06,WeatherDisplay:10.37,2013-01-27 22:48:00,
2013-01-27 17:52:00,38.9,29.6,30.46,SE,144,3.5,3.5,69,0.00,,,0.06,WeatherDisplay:10.37,2013-01-27 22:52:00,
2013-01-27 17:53:00,38.9,29.6,30.45,SE,137,3.5,3.5,69,0.00,,,0.06,WeatherDisplay:10.37,2013-01-27 22:53:00,
2013-01-27 17:57:00,38.7,30.1,30.45,East,94,3.5,3.5,71,0.00,,,0.06,WeatherDisplay:10.37,2013-01-27 22:57:00,
2013-01-27 17:59:00,38.7,29.8,30.45,East,92,3.5,3.5,70,0.00,,,0.06,WeatherDisplay:10.37,2013-01-27 22:59:00,
2013-01-27 18:02:00,38.5,29.6,30.45,East,88,3.5,3.5,70,0.00,,,0.06,WeatherDisplay:10.37,2013-01-27 23:02:00,
2013-01-27 18:03:00,38.5,29.6,30.45,East,85,3.5,3.5,70,0.00,,,0.06,WeatherDisplay:10.37,2013-01-27 23:03:00,
2013-01-27 18:04:00,38.5,29.6,30.45,ENE,75,3.5,3.5,70,0.00,,,0.06,WeatherDisplay:10.37,2013-01-27 23:04:00,
2013-01-27 18:07:00,38.3,29.7,30.45,East,94,2.3,2.3,71,0.00,,,0.06,WeatherDisplay:10.37,2013-01-27 23:07:00,
2013-01-27 18:08:00,38.3,29.7,30.45,East,87,4.0,4.0,71,0.00,,,0.06,WeatherDisplay:10.37,2013-01-27 23:08:00,
2013-01-27 18:09:00,38.3,29.7,30.45,NE,56,4.6,4.6,71,0.00,,,0.06,WeatherDisplay:10.37,2013-01-27 23:09:00,
2013-01-27 18:12:00,38.2,29.6,30.45,ENE,65,3.0,3.0,71,0.00,,,0.06,WeatherDisplay:10.37,2013-01-27 23:12:00,
2013-01-27 18:13:00,38.2,30.0,30.45,NE,42,3.5,3.5,72,0.00,,,0.06,WeatherDisplay:10.37,2013-01-27 23:13:00,
2013-01-27 18:15:00,38.1,29.6,30.45,East,91,3.0,7.0,71,0.00,,,0.06,WeatherDisplay:10.37,2013-01-27 23:15:00,
2013-01-27 18:18:00,38.2,29.3,30.46,East,81,3.5,3.5,70,0.00,,,0.06,WeatherDisplay:10.37,2013-01-27 23:18:00,
2013-01-27 18:20:00,38.2,29.3,30.46,East,96,3.5,3.5,70,0.00,,,0.06,WeatherDisplay:10.37,2013-01-27 23:20:00,
2013-01-27 18:23:00,38.1,29.5,30.45,East,101,3.5,3.5,71,0.00,,,0.06,WeatherDisplay:10.37,2013-01-27 23:23:00,
2013-01-27 18:24:00,38.1,29.5,30.45,East,91,3.5,3.5,71,0.00,,,0.06,WeatherDisplay:10.37,2013-01-27 23:24:00,
2013-01-27 18:25:00,38.1,29.5,30.45,East,99,3.5,3.5,71,0.00,,,0.06,WeatherDisplay:10.37,2013-01-27 23:25:00,
2013-01-27 18:28:00,38.0,29.4,30.45,East,89,3.5,3.5,71,0.00,,,0.06,WeatherDisplay:10.37,2013-01-27 23:28:00,
2013-01-27 18:29:00,38.0,29.4,30.45,East,99,3.5,3.5,71,0.00,,,0.06,WeatherDisplay:10.37,2013-01-27 23:29:00,
2013-01-27 18:30:00,37.9,29.3,30.45,East,81,4.6,4.6,71,0.00,,,0.06,WeatherDisplay:10.37,2013-01-27 23:30:00,
2013-01-27 18:33:00,37.9,29.3,30.45,East,95,5.0,5.0,71,0.00,,,0.06,WeatherDisplay:10.37,2013-01-27 23:33:00,
2013-01-27 18:34:00,37.9,29.3,30.45,East,92,4.6,4.6,71,0.00,,,0.06,WeatherDisplay:10.37,2013-01-27 23:34:00,
2013-01-27 18:36:00,37.9,29.3,30.45,East,85,4.6,4.6,71,0.00,,,0.06,WeatherDisplay:10.37,2013-01-27 23:36:00,
2013-01-27 18:38:00,37.8,29.2,30.45,ESE,106,3.5,3.5,71,0.00,,,0.06,WeatherDisplay:10.37,2013-01-27 23:38:00,
2013-01-27 18:39:00,37.8,29.2,30.45,ESE,105,5.0,5.0,71,0.00,,,0.06,WeatherDisplay:10.37,2013-01-27 23:39:00,
2013-01-27 18:41:00,37.8,29.2,30.45,East,94,3.5,3.5,71,0.00,,,0.06,WeatherDisplay:10.37,2013-01-27 23:41:00,
2013-01-27 18:43:00,37.7,29.1,30.45,East,82,4.6,4.6,71,0.00,,,0.06,WeatherDisplay:10.37,2013-01-27 23:43:00,
2013-01-27 18:44:00,37.7,28.8,30.45,ENE,78,5.8,5.8,70,0.00,,,0.06,WeatherDisplay:10.37,2013-01-27 23:44:00,
2013-01-27 18:46:00,37.8,28.9,30.45,East,90,2.3,2.3,70,0.00,,,0.06,WeatherDisplay:10.37,2013-01-27 23:46:00,
2013-01-27 18:48:00,37.8,28.9,30.45,East,91,5.8,5.8,70,0.00,,,0.06,WeatherDisplay:10.37,2013-01-27 23:48:00,
2013-01-27 18:49:00,37.8,28.5,30.45,East,88,4.6,4.6,69,0.00,,,0.06,WeatherDisplay:10.37,2013-01-27 23:49:00,
2013-01-27 18:50:00,37.8,28.5,30.45,East,89,4.6,4.6,69,0.00,,,0.06,WeatherDisplay:10.37,2013-01-27 23:50:00,
2013-01-27 18:51:00,37.8,28.9,30.45,East,87,3.5,3.5,70,0.00,,,0.06,WeatherDisplay:10.37,2013-01-27 23:51:00,
2013-01-27 18:54:00,37.8,28.9,30.45,ESE,108,4.6,4.6,70,0.00,,,0.06,WeatherDisplay:10.37,2013-01-27 23:54:00,
2013-01-27 18:55:00,37.7,28.8,30.45,NE,47,5.0,5.0,70,0.00,,,0.06,WeatherDisplay:10.37,2013-01-27 23:55:00,
2013-01-27 18:57:00,37.7,28.4,30.45,East,93,3.5,3.5,69,0.00,,,0.06,WeatherDisplay:10.37,2013-01-27 23:57:00,
2013-01-27 18:59:00,37.7,28.8,30.45,NNE,23,3.5,3.5,70,0.00,,,0.06,WeatherDisplay:10.37,2013-01-27 23:59:00,
2013-01-27 19:00:00,37.7,28.8,30.45,ENE,59,4.0,4.0,70,0.00,,,0.06,WeatherDisplay:10.37,2013-01-28 00:00:00,
2013-01-27 19:01:00,37.7,28.4,30.46,East,101,3.5,3.5,69,0.00,,,0.06,WeatherDisplay:10.37,2013-01-28 00:01:00,
2013-01-27 19:02:00,37.7,28.4,30.46,ESE,106,3.5,3.5,69,0.00,,,0.06,WeatherDisplay:10.37,2013-01-28 00:02:00,
2013-01-27 19:04:00,37.7,28.8,30.45,East,101,3.5,3.5,70,0.00,,,0.06,WeatherDisplay:10.37,2013-01-28 00:04:00,
2013-01-27 19:05:00,37.7,28.8,30.45,ESE,108,3.5,3.5,70,0.00,,,0.06,WeatherDisplay:10.37,2013-01-28 00:05:00,
2013-01-27 19:06:00,37.7,28.4,30.45,East,87,4.0,4.0,69,0.00,,,0.06,WeatherDisplay:10.37,2013-01-28 00:06:00,
2013-01-27 19:07:00,37.7,28.8,30.45,East,99,9.2,9.2,70,0.00,,,0.06,WeatherDisplay:10.37,2013-01-28 00:07:00,
2013-01-27 19:10:00,37.6,28.7,30.45,ESE,119,2.3,2.3,70,0.00,,,0.06,WeatherDisplay:10.37,2013-01-28 00:10:00,
2013-01-27 19:11:00,37.6,28.7,30.45,SE,126,3.5,3.5,70,0.00,,,0.06,WeatherDisplay:10.37,2013-01-28 00:11:00,
2013-01-27 19:12:00,37.5,28.6,30.45,ESE,108,4.0,4.0,70,0.00,,,0.06,WeatherDisplay:10.37,2013-01-28 00:12:00,
2013-01-27 19:15:00,37.5,28.6,30.45,East,96,5.8,5.8,70,0.00,,,0.06,WeatherDisplay:10.37,2013-01-28 00:15:00,
2013-01-27 19:16:00,37.5,28.6,30.45,East,100,4.0,4.0,70,0.00,,,0.06,WeatherDisplay:10.37,2013-01-28 00:16:00,
2013-01-27 19:18:00,37.5,28.2,30.45,NE,45,4.6,4.6,69,0.00,,,0.06,WeatherDisplay:10.37,2013-01-28 00:18:00,
2013-01-27 19:20:00,37.5,28.6,30.45,East,92,5.0,5.0,70,0.00,,,0.06,WeatherDisplay:10.37,2013-01-28 00:20:00,
2013-01-27 19:21:00,37.5,28.6,30.45,ENE,60,5.8,5.8,70,0.00,,,0.06,WeatherDisplay:10.37,2013-01-28 00:21:00,
2013-01-27 19:23:00,37.5,28.6,30.45,NNE,33,4.6,4.6,70,0.00,,,0.06,WeatherDisplay:10.37,2013-01-28 00:23:00,
2013-01-27 19:25:00,37.4,28.5,30.45,East,82,5.8,5.8,70,0.00,,,0.06,WeatherDisplay:10.37,2013-01-28 00:25:00,
2013-01-27 19:26:00,37.4,28.5,30.45,ESE,119,3.5,3.5,70,0.00,,,0.06,WeatherDisplay:10.37,2013-01-28 00:26:00,
2013-01-27 19:28:00,37.4,28.5,30.45,East,96,4.0,4.0,70,0.00,,,0.06,WeatherDisplay:10.37,2013-01-28 00:28:00,
2013-01-27 19:31:00,37.3,28.4,30.46,East,100,3.5,3.5,70,0.00,,,0.06,WeatherDisplay:10.37,2013-01-28 00:31:00,
2013-01-27 19:34:00,37.3,28.8,30.45,East,84,3.5,3.5,71,0.00,,,0.06,WeatherDisplay:10.37,2013-01-28 00:34:00,
2013-01-27 19:36:00,37.3,28.8,30.45,NE,43,3.5,3.5,71,0.00,,,0.06,WeatherDisplay:10.37,2013-01-28 00:36:00,
2013-01-27 19:37:00,37.2,28.7,30.45,ENE,75,3.5,3.5,71,0.00,,,0.06,WeatherDisplay:10.37,2013-01-28 00:37:00,
2013-01-27 19:39:00,37.2,28.7,30.45,East,98,4.0,4.0,71,0.00,,,0.06,WeatherDisplay:10.37,2013-01-28 00:39:00,
2013-01-27 19:41:00,37.2,28.7,30.45,NE,47,3.5,3.5,71,0.00,,,0.06,WeatherDisplay:10.37,2013-01-28 00:41:00,
2013-01-27 19:42:00,37.2,28.7,30.45,ESE,103,3.5,3.5,71,0.00,,,0.06,WeatherDisplay:10.37,2013-01-28 00:42:00,
2013-01-27 19:45:00,37.2,28.7,30.45,East,100,3.5,3.5,71,0.00,,,0.06,WeatherDisplay:10.37,2013-01-28 00:45:00,
2013-01-27 19:46:00,37.1,28.6,30.45,East,94,3.5,3.5,71,0.00,,,0.06,WeatherDisplay:10.37,2013-01-28 00:46:00,
2013-01-27 19:48:00,37.1,28.6,30.45,East,80,4.0,4.0,71,0.00,,,0.06,WeatherDisplay:10.37,2013-01-28 00:48:00,
2013-01-27 19:50:00,37.1,28.6,30.45,ESE,119,3.5,3.5,71,0.00,,,0.06,WeatherDisplay:10.37,2013-01-28 00:50:00,
2013-01-27 19:51:00,37.0,28.5,30.45,SE,137,3.5,3.5,71,0.00,,,0.06,WeatherDisplay:10.37,2013-01-28 00:51:00,
2013-01-27 19:53:00,37.0,28.5,30.45,ESE,110,6.9,6.9,71,0.00,,,0.06,WeatherDisplay:10.37,2013-01-28 00:53:00,
2013-01-27 19:55:00,37.0,28.8,30.45,East,82,7.0,7.0,72,0.00,,,0.06,WeatherDisplay:10.37,2013-01-28 00:55:00,
2013-01-27 19:56:00,37.0,28.5,30.44,East,96,6.9,6.9,71,0.00,,,0.06,WeatherDisplay:10.37,2013-01-28 00:56:00,
2013-01-27 19:57:00,37.0,28.8,30.44,East,87,4.0,4.0,72,0.00,,,0.06,WeatherDisplay:10.37,2013-01-28 00:57:00,
2013-01-27 19:58:00,36.9,28.7,30.44,ESE,118,6.9,6.9,72,0.00,,,0.06,WeatherDisplay:10.37,2013-01-28 00:58:00,
2013-01-27 20:00:00,36.9,28.4,30.44,ENE,64,6.9,6.9,71,0.00,,,0.06,WeatherDisplay:10.37,2013-01-28 01:00:00,
2013-01-27 20:02:00,36.9,28.4,30.45,ESE,118,3.5,3.5,71,0.00,,,0.06,WeatherDisplay:10.37,2013-01-28 01:02:00,
2013-01-27 20:03:00,36.9,28.4,30.44,SE,125,5.8,5.8,71,0.00,,,0.06,WeatherDisplay:10.37,2013-01-28 01:03:00,
2013-01-27 20:06:00,36.8,28.6,30.44,ESE,113,6.0,6.0,72,0.00,,,0.06,WeatherDisplay:10.37,2013-01-28 01:06:00,
2013-01-27 20:07:00,36.8,28.6,30.44,East,90,5.8,5.8,72,0.00,,,0.06,WeatherDisplay:10.37,2013-01-28 01:07:00,
2013-01-27 20:08:00,36.8,28.6,30.44,East,95,4.0,4.0,72,0.00,,,0.06,WeatherDisplay:10.37,2013-01-28 01:08:00,
2013-01-27 20:11:00,36.7,28.5,30.44,ESE,108,4.6,4.6,72,0.00,,,0.06,WeatherDisplay:10.37,2013-01-28 01:11:00,
2013-01-27 20:12:00,36.7,28.5,30.44,East,87,5.0,5.0,72,0.00,,,0.06,WeatherDisplay:10.37,2013-01-28 01:12:00,
2013-01-27 20:13:00,36.7,28.5,30.44,East,93,5.8,5.8,72,0.00,,,0.06,WeatherDisplay:10.37,2013-01-28 01:13:00,
2013-01-27 20:14:00,36.7,28.5,30.44,East,87,5.8,5.8,72,0.00,,,0.06,WeatherDisplay:10.37,2013-01-28 01:14:00,
2013-01-27 20:17:00,36.6,28.4,30.44,ENE,74,6.9,6.9,72,0.00,,,0.06,WeatherDisplay:10.37,2013-01-28 01:17:00,
2013-01-27 20:18:00,36.6,28.4,30.44,ESE,109,5.8,5.8,72,0.00,,,0.06,WeatherDisplay:10.37,2013-01-28 01:18:00,
2013-01-27 20:19:00,36.6,28.4,30.44,SE,132,5.0,5.0,72,0.00,,,0.06,WeatherDisplay:10.37,2013-01-28 01:19:00,
2013-01-27 20:22:00,36.6,28.4,30.44,East,89,3.5,3.5,72,0.00,,,0.06,WeatherDisplay:10.37,2013-01-28 01:22:00,
2013-01-27 20:23:00,36.6,28.4,30.44,East,96,5.8,5.8,72,0.00,,,0.06,WeatherDisplay:10.37,2013-01-28 01:23:00,
2013-01-27 20:24:00,36.6,28.4,30.44,East,101,4.0,4.0,72,0.00,,,0.06,WeatherDisplay:10.37,2013-01-28 01:24:00,
2013-01-27 20:27:00,36.6,28.4,30.44,SE,130,4.6,4.6,72,0.00,,,0.06,WeatherDisplay:10.37,2013-01-28 01:27:00,
2013-01-27 20:28:00,36.6,28.4,30.44,East,81,4.6,4.6,72,0.00,,,0.06,WeatherDisplay:10.37,2013-01-28 01:28:00,
2013-01-27 20:29:00,36.6,28.4,30.44,ENE,68,3.5,3.5,72,0.00,,,0.06,WeatherDisplay:10.37,2013-01-28 01:29:00,
2013-01-27 20:32:00,36.5,28.3,30.44,ESE,115,4.6,4.6,72,0.00,,,0.06,WeatherDisplay:10.37,2013-01-28 01:32:00,
2013-01-27 20:33:00,36.5,28.3,30.44,ESE,108,5.8,5.8,72,0.00,,,0.06,WeatherDisplay:10.37,2013-01-28 01:33:00,
2013-01-27 20:35:00,36.5,28.3,30.44,East,81,4.6,4.6,72,0.00,,,0.06,WeatherDisplay:10.37,2013-01-28 01:35:00,
2013-01-27 20:37:00,36.5,28.3,30.44,East,88,4.0,4.0,72,0.00,,,0.06,WeatherDisplay:10.37,2013-01-28 01:37:00,
2013-01-27 20:38:00,36.5,28.3,30.44,ESE,110,4.6,4.6,72,0.00,,,0.06,WeatherDisplay:10.37,2013-01-28 01:38:00,
2013-01-27 20:40:00,36.4,28.6,30.43,SE,137,5.8,5.8,73,0.00,,,0.06,WeatherDisplay:10.37,2013-01-28 01:40:00,
2013-01-27 20:42:00,36.4,28.6,30.44,ESE,105,3.5,3.5,73,0.00,,,0.06,WeatherDisplay:10.37,2013-01-28 01:42:00,
2013-01-27 20:43:00,36.3,28.5,30.43,East,101,3.5,3.5,73,0.00,,,0.06,WeatherDisplay:10.37,2013-01-28 01:43:00,
2013-01-27 20:44:00,36.3,28.5,30.43,East,100,2.3,2.3,73,0.00,,,0.06,WeatherDisplay:10.37,2013-01-28 01:44:00,
2013-01-27 20:46:00,36.3,28.5,30.43,SE,144,3.5,3.5,73,0.00,,,0.06,WeatherDisplay:10.37,2013-01-28 01:46:00,
2013-01-27 20:48:00,36.3,28.5,30.43,East,84,5.8,5.8,73,0.00,,,0.06,WeatherDisplay:10.37,2013-01-28 01:48:00,
2013-01-27 20:49:00,36.3,28.5,30.43,ENE,78,3.5,3.5,73,0.00,,,0.06,WeatherDisplay:10.37,2013-01-28 01:49:00,
2013-01-27 20:51:00,36.3,28.5,30.43,SE,139,2.3,2.3,73,0.00,,,0.06,WeatherDisplay:10.37,2013-01-28 01:51:00,
2013-01-27 20:53:00,36.3,28.5,30.44,East,95,5.0,5.0,73,0.00,,,0.06,WeatherDisplay:10.37,2013-01-28 01:53:00,
2013-01-27 20:54:00,36.2,28.4,30.44,East,85,4.6,4.6,73,0.00,,,0.06,WeatherDisplay:10.37,2013-01-28 01:54:00,
2013-01-27 20:56:00,36.3,28.5,30.44,NNE,23,3.5,3.5,73,0.00,,,0.06,WeatherDisplay:10.37,2013-01-28 01:56:00,
2013-01-27 20:58:00,36.3,28.1,30.44,ENE,67,3.5,3.5,72,0.00,,,0.06,WeatherDisplay:10.37,2013-01-28 01:58:00,
2013-01-27 20:59:00,36.3,28.1,30.44,ESE,103,3.5,3.5,72,0.00,,,0.06,WeatherDisplay:10.37,2013-01-28 01:59:00,
2013-01-27 21:01:00,36.3,28.1,30.44,ENE,63,3.5,3.5,72,0.00,,,0.06,WeatherDisplay:10.37,2013-01-28 02:01:00,
2013-01-27 21:03:00,36.3,28.1,30.44,East,88,3.5,3.5,72,0.00,,,0.06,WeatherDisplay:10.37,2013-01-28 02:03:00,
2013-01-27 21:04:00,36.3,28.1,30.44,East,93,3.5,3.5,72,0.00,,,0.06,WeatherDisplay:10.37,2013-01-28 02:04:00,
2013-01-27 21:07:00,36.4,28.2,30.44,ESE,102,1.1,1.1,72,0.00,,,0.06,WeatherDisplay:10.37,2013-01-28 02:07:00,
2013-01-27 21:08:00,36.4,28.2,30.44,ESE,106,2.3,2.3,72,0.00,,,0.06,WeatherDisplay:10.37,2013-01-28 02:08:00,
2013-01-27 21:09:00,36.3,28.1,30.44,East,88,2.0,2.0,72,0.00,,,0.06,WeatherDisplay:10.37,2013-01-28 02:09:00,
2013-01-27 21:12:00,36.3,28.1,30.44,East,101,5.0,5.0,72,0.00,,,0.06,WeatherDisplay:10.37,2013-01-28 02:12:00,
2013-01-27 21:13:00,36.3,27.8,30.44,East,92,5.8,5.8,71,0.00,,,0.06,WeatherDisplay:10.37,2013-01-28 02:13:00,
2013-01-27 21:14:00,36.3,27.8,30.44,East,98,4.6,4.6,71,0.00,,,0.06,WeatherDisplay:10.37,2013-01-28 02:14:00,
2013-01-27 21:15:00,36.3,27.8,30.44,East,101,3.5,3.5,71,0.00,,,0.06,WeatherDisplay:10.37,2013-01-28 02:15:00,
2013-01-27 21:17:00,36.3,27.8,30.44,ENE,78,3.5,3.5,71,0.00,,,0.06,WeatherDisplay:10.37,2013-01-28 02:17:00,
2013-01-27 21:18:00,36.3,27.8,30.44,East,83,3.5,3.5,71,0.00,,,0.06,WeatherDisplay:10.37,2013-01-28 02:18:00,
2013-01-27 21:20:00,36.3,27.8,30.44,ENE,74,2.3,2.3,71,0.00,,,0.06,WeatherDisplay:10.37,2013-01-28 02:20:00,
2013-01-27 21:23:00,36.3,28.1,30.44,East,96,3.5,3.5,72,0.00,,,0.06,WeatherDisplay:10.37,2013-01-28 02:23:00,
2013-01-27 21:24:00,36.3,28.1,30.44,ENE,61,3.5,3.5,72,0.00,,,0.06,WeatherDisplay:10.37,2013-01-28 02:24:00,
2013-01-27 21:25:00,36.3,28.5,30.44,ENE,63,1.1,1.1,73,0.00,,,0.06,WeatherDisplay:10.37,2013-01-28 02:25:00,
2013-01-27 21:28:00,36.2,28.4,30.44,SE,125,2.3,2.3,73,0.00,,,0.06,WeatherDisplay:10.37,2013-01-28 02:28:00,
2013-01-27 21:29:00,36.2,28.4,30.44,East,82,3.5,3.5,73,0.00,,,0.06,WeatherDisplay:10.37,2013-01-28 02:29:00,
2013-01-27 21:30:00,36.2,28.4,30.44,East,89,3.5,3.5,73,0.00,,,0.06,WeatherDisplay:10.37,2013-01-28 02:30:00,
2013-01-27 21:33:00,36.1,28.6,30.44,SSE,147,4.6,4.6,74,0.00,,,0.06,WeatherDisplay:10.37,2013-01-28 02:33:00,
2013-01-27 21:35:00,36.0,28.5,30.44,East,92,2.3,2.3,74,0.00,,,0.06,WeatherDisplay:10.37,2013-01-28 02:35:00,
2013-01-27 21:36:00,36.0,28.5,30.44,ESE,114,3.5,3.5,74,0.00,,,0.06,WeatherDisplay:10.37,2013-01-28 02:36:00,
2013-01-27 21:38:00,35.9,28.7,30.44,SE,133,1.1,1.1,75,0.00,,,0.06,WeatherDisplay:10.37,2013-01-28 02:38:00,
2013-01-27 21:40:00,35.9,28.7,30.44,East,82,3.0,3.0,75,0.00,,,0.06,WeatherDisplay:10.37,2013-01-28 02:40:00,
2013-01-27 21:41:00,35.9,28.7,30.44,ESE,110,3.5,3.5,75,0.00,,,0.06,WeatherDisplay:10.37,2013-01-28 02:41:00,
2013-01-27 21:43:00,35.8,28.6,30.44,East,84,2.3,2.3,75,0.00,,,0.06,WeatherDisplay:10.37,2013-01-28 02:43:00,
2013-01-27 21:46:00,35.8,28.6,30.43,SE,146,2.3,2.3,75,0.00,,,0.06,WeatherDisplay:10.37,2013-01-28 02:46:00,
2013-01-27 21:48:00,35.7,28.9,30.43,SE,146,1.0,1.0,76,0.00,,,0.06,WeatherDisplay:10.37,2013-01-28 02:48:00,
2013-01-27 21:51:00,35.7,28.9,30.44,SE,144,2.3,2.3,76,0.00,,,0.06,WeatherDisplay:10.37,2013-01-28 02:51:00,
2013-01-27 21:53:00,35.7,28.9,30.44,SE,141,2.3,2.3,76,0.00,,,0.06,WeatherDisplay:10.37,2013-01-28 02:53:00,
2013-01-27 21:56:00,35.6,28.8,30.43,ESE,105,2.3,2.3,76,0.00,,,0.06,WeatherDisplay:10.37,2013-01-28 02:56:00,
2013-01-27 21:58:00,35.6,29.1,30.43,East,99,2.3,2.3,77,0.00,,,0.06,WeatherDisplay:10.37,2013-01-28 02:58:00,
2013-01-27 22:01:00,35.5,29.0,30.43,ESE,106,3.5,3.5,77,0.00,,,0.06,WeatherDisplay:10.37,2013-01-28 03:01:00,
2013-01-27 22:02:00,35.5,29.0,30.43,East,81,3.0,3.0,77,0.00,,,0.06,WeatherDisplay:10.37,2013-01-28 03:02:00,
2013-01-27 22:03:00,35.5,29.3,30.43,ESE,120,3.5,3.5,78,0.00,,,0.06,WeatherDisplay:10.37,2013-01-28 03:03:00,
2013-01-27 22:06:00,35.4,28.9,30.43,East,99,2.3,2.3,77,0.00,,,0.06,WeatherDisplay:10.37,2013-01-28 03:06:00,
2013-01-27 22:07:00,35.4,28.9,30.43,ESE,110,1.1,1.1,77,0.00,,,0.06,WeatherDisplay:10.37,2013-01-28 03:07:00,
2013-01-27 22:09:00,35.3,29.1,30.43,ESE,110,1.1,1.1,78,0.00,,,0.06,WeatherDisplay:10.37,2013-01-28 03:09:00,
2013-01-27 22:11:00,35.3,29.1,30.43,SE,130,1.1,1.1,78,0.00,,,0.06,WeatherDisplay:10.37,2013-01-28 03:11:00,
2013-01-27 22:12:00,35.3,29.1,30.43,SE,129,1.1,1.1,78,0.00,,,0.06,WeatherDisplay:10.37,2013-01-28 03:12:00,
2013-01-27 22:15:00,35.3,29.1,30.43,SE,128,1.1,1.1,78,0.00,,,0.06,WeatherDisplay:10.37,2013-01-28 03:15:00,
2013-01-27 22:17:00,35.2,29.0,30.43,East,101,2.3,2.3,78,0.00,,,0.06,WeatherDisplay:10.37,2013-01-28 03:17:00,
2013-01-27 22:20:00,35.2,29.0,30.43,ESE,122,1.1,1.1,78,0.00,,,0.06,WeatherDisplay:10.37,2013-01-28 03:20:00,
2013-01-27 22:22:00,35.2,29.3,30.43,ESE,122,1.1,0.0,79,0.00,,,0.06,WeatherDisplay:10.37,2013-01-28 03:22:00,
2013-01-27 22:25:00,35.2,29.3,30.43,ESE,122,0.0,0.0,79,0.00,,,0.06,WeatherDisplay:10.37,2013-01-28 03:25:00,
2013-01-27 22:27:00,35.1,29.2,30.43,SE,143,1.1,1.1,79,0.00,,,0.06,WeatherDisplay:10.37,2013-01-28 03:27:00,
2013-01-27 22:28:00,35.1,29.2,30.43,SE,142,1.1,1.1,79,0.00,,,0.06,WeatherDisplay:10.37,2013-01-28 03:28:00,
2013-01-27 22:30:00,35.1,29.6,30.43,ESE,106,1.1,1.1,80,0.00,,,0.06,WeatherDisplay:10.37,2013-01-28 03:30:00,
2013-01-27 22:32:00,35.1,29.6,30.42,East,87,2.3,2.3,80,0.00,,,0.06,WeatherDisplay:10.37,2013-01-28 03:32:00,
2013-01-27 22:33:00,35.1,29.6,30.42,East,87,1.1,1.1,80,0.00,,,0.06,WeatherDisplay:10.37,2013-01-28 03:33:00,
2013-01-27 22:35:00,35.0,29.8,30.42,ESE,108,2.3,2.3,81,0.00,,,0.06,WeatherDisplay:10.37,2013-01-28 03:35:00,
2013-01-27 22:37:00,35.0,29.8,30.42,ESE,108,1.1,1.1,81,0.00,,,0.06,WeatherDisplay:10.37,2013-01-28 03:37:00,
2013-01-27 22:38:00,35.0,29.8,30.42,ESE,108,1.1,1.1,81,0.00,,,0.06,WeatherDisplay:10.37,2013-01-28 03:38:00,
2013-01-27 22:40:00,34.9,29.7,30.43,ESE,108,1.1,1.1,81,0.01,RA,,0.07,WeatherDisplay:10.37,2013-01-28 03:40:00,
2013-01-27 22:43:00,34.9,29.7,30.43,ESE,108,0.0,0.0,81,0.01,RA,,0.07,WeatherDisplay:10.37,2013-01-28 03:43:00,
2013-01-27 22:45:00,34.9,30.0,30.43,ESE,108,0.0,0.0,82,0.01,RA,,0.07,WeatherDisplay:10.37,2013-01-28 03:45:00,
2013-01-27 22:48:00,34.8,29.9,30.43,ESE,108,0.0,0.0,82,0.01,RA,,0.07,WeatherDisplay:10.37,2013-01-28 03:48:00,
2013-01-27 22:50:00,34.8,30.2,30.43,ESE,108,0.0,0.0,83,0.01,,,0.07,WeatherDisplay:10.37,2013-01-28 03:50:00,
2013-01-27 22:53:00,34.7,30.1,30.43,ESE,108,0.0,0.0,83,0.01,,,0.07,WeatherDisplay:10.37,2013-01-28 03:53:00,
2013-01-27 22:54:00,34.7,30.1,30.43,ESE,108,0.0,0.0,83,0.01,,,0.07,WeatherDisplay:10.37,2013-01-28 03:54:00,
2013-01-27 22:56:00,34.7,30.4,30.43,ESE,108,0.0,0.0,84,0.01,,,0.07,WeatherDisplay:10.37,2013-01-28 03:56:00,
2013-01-27 22:58:00,34.7,30.4,30.43,SE,137,1.1,1.1,84,0.01,,,0.07,WeatherDisplay:10.37,2013-01-28 03:58:00,
2013-01-27 22:59:00,34.7,30.4,30.43,SE,137,1.1,1.1,84,0.01,,,0.07,WeatherDisplay:10.37,2013-01-28 03:59:00,
2013-01-27 23:01:00,34.6,30.3,30.43,ESE,118,1.1,1.1,84,0.01,,,0.07,WeatherDisplay:10.37,2013-01-28 04:01:00,
2013-01-27 23:03:00,34.6,30.6,30.43,ESE,118,0.0,0.0,85,0.01,,,0.07,WeatherDisplay:10.37,2013-01-28 04:03:00,
2013-01-27 23:04:00,34.5,30.5,30.43,ESE,118,0.0,0.0,85,0.01,,,0.07,WeatherDisplay:10.37,2013-01-28 04:04:00,
2013-01-27 23:06:00,34.5,30.5,30.43,SE,125,1.1,1.1,85,0.01,,,0.07,WeatherDisplay:10.37,2013-01-28 04:06:00,
2013-01-27 23:08:00,34.4,30.4,30.42,SSE,149,1.1,1.1,85,0.01,,,0.07,WeatherDisplay:10.37,2013-01-28 04:08:00,
2013-01-27 23:09:00,34.4,30.6,30.42,SSE,150,1.1,1.1,86,0.01,,,0.07,WeatherDisplay:10.37,2013-01-28 04:09:00,
2013-01-27 23:10:00,34.4,30.6,30.42,SSE,149,1.1,1.1,86,0.01,,,0.07,WeatherDisplay:10.37,2013-01-28 04:10:00,
2013-01-27 23:11:00,34.4,30.6,30.42,SSE,149,1.1,0.0,86,0.01,,,0.07,WeatherDisplay:10.37,2013-01-28 04:11:00,
2013-01-27 23:13:00,34.4,30.6,30.42,SSE,148,1.0,1.0,86,0.01,,,0.07,WeatherDisplay:10.37,2013-01-28 04:13:00,
2013-01-27 23:15:00,34.3,30.5,30.42,SSE,148,1.1,1.1,86,0.01,,,0.07,WeatherDisplay:10.37,2013-01-28 04:15:00,
2013-01-27 23:17:00,34.3,30.3,30.42,SSE,150,1.1,1.1,85,0.01,,,0.07,WeatherDisplay:10.37,2013-01-28 04:17:00,
2013-01-27 23:19:00,34.4,30.4,30.42,East,80,2.3,2.3,85,0.01,,,0.07,WeatherDisplay:10.37,2013-01-28 04:19:00,
2013-01-27 23:20:00,34.4,30.4,30.42,SE,144,1.1,1.1,85,0.01,,,0.07,WeatherDisplay:10.37,2013-01-28 04:20:00,
2013-01-27 23:22:00,34.3,30.3,30.42,SSE,147,3.5,3.5,85,0.01,,,0.07,WeatherDisplay:10.37,2013-01-28 04:22:00,
2013-01-27 23:24:00,34.3,30.3,30.42,ESE,108,1.1,1.1,85,0.01,,,0.07,WeatherDisplay:10.37,2013-01-28 04:24:00,
2013-01-27 23:25:00,34.3,30.3,30.42,SSE,152,2.3,2.3,85,0.01,,,0.07,WeatherDisplay:10.37,2013-01-28 04:25:00,
2013-01-27 23:27:00,34.3,30.3,30.42,East,88,2.3,2.3,85,0.01,,,0.07,WeatherDisplay:10.37,2013-01-28 04:27:00,
2013-01-27 23:29:00,34.3,30.3,30.42,SE,129,1.1,1.1,85,0.01,,,0.07,WeatherDisplay:10.37,2013-01-28 04:29:00,
2013-01-27 23:30:00,34.3,30.3,30.42,East,96,2.0,2.0,85,0.01,,,0.07,WeatherDisplay:10.37,2013-01-28 04:30:00,
2013-01-27 23:32:00,34.3,30.3,30.42,East,101,2.3,2.3,85,0.01,,,0.07,WeatherDisplay:10.37,2013-01-28 04:32:00,
2013-01-27 23:35:00,34.3,30.0,30.42,East,85,3.5,3.5,84,0.01,,,0.07,WeatherDisplay:10.37,2013-01-28 04:35:00,
2013-01-27 23:37:00,34.3,30.0,30.42,ESE,106,2.3,2.3,84,0.01,,,0.07,WeatherDisplay:10.37,2013-01-28 04:37:00,
2013-01-27 23:40:00,34.3,30.0,30.42,East,96,1.0,3.0,84,0.00,,,0.07,WeatherDisplay:10.37,2013-01-28 04:40:00,
2013-01-27 23:42:00,34.3,30.0,30.41,SSE,154,4.6,4.6,84,0.00,,,0.07,WeatherDisplay:10.37,2013-01-28 04:42:00,
2013-01-27 23:45:00,34.3,30.0,30.42,East,98,1.0,5.0,84,0.00,,,0.07,WeatherDisplay:10.37,2013-01-28 04:45:00,
2013-01-27 23:46:00,34.3,30.0,30.42,SE,143,1.1,1.1,84,0.00,,,0.07,WeatherDisplay:10.37,2013-01-28 04:46:00,
2013-01-27 23:47:00,34.3,30.0,30.42,ESE,109,1.1,1.1,84,0.00,,,0.07,WeatherDisplay:10.37,2013-01-28 04:47:00,
2013-01-27 23:50:00,34.3,30.0,30.42,ESE,103,0.0,2.0,84,0.00,,,0.07,WeatherDisplay:10.37,2013-01-28 04:50:00,
2013-01-27 23:51:00,34.3,30.0,30.42,ESE,110,1.1,1.1,84,0.00,,,0.07,WeatherDisplay:10.37,2013-01-28 04:51:00,
2013-01-27 23:52:00,34.3,30.0,30.42,SSE,154,1.1,1.1,84,0.00,,,0.07,WeatherDisplay:10.37,2013-01-28 04:52:00,
2013-01-27 23:55:00,34.3,30.0,30.42,ESE,120,1.0,3.0,84,0.00,,,0.07,WeatherDisplay:10.37,2013-01-28 04:55:00,
2013-01-27 23:56:00,34.3,30.0,30.42,ESE,106,3.5,3.5,84,0.00,,,0.07,WeatherDisplay:10.37,2013-01-28 04:56:00,
2013-01-27 23:58:00,34.3,30.0,30.41,East,87,1.1,1.1,84,0.00,,,0.07,WeatherDisplay:10.37,2013-01-28 04:58:00,